Flight Track Log - Related Links

Times and Time Zones

All times are in EST time to prevent confusion due to time zone crossing. See the VIR19 flight status page for this flight to view local times or setup timezone preferences in your user account.

Time Position Orientation Groundspeed Altitude Reporting Facility
EST Latitude Longitude Course Direction KTS MPH feet Rate Location/Type
Sat 06:16:21 AM 51.4648 -0.4739 90° East 110 127  Level FlightAware ADS-B
Sat 06:16:51 AM 51.4644 -0.4121 93° East 177 204 800 1,529 Climbing FlightAware ADS-B (EGLF / FAB)
Sat 06:17:12 AM 51.4643 -0.3854 90° East 184 212 1,300 1,667 Climbing FlightAware ADS-B (EGLC / LCY)
Sat 06:17:27 AM 51.4644 -0.3605 89° East 191 220 1,800 1,875 Climbing FlightAware ADS-B (EGLC / LCY)
Sat 06:17:28 AM 51.4644 -0.3605 89° East 191 220 1,800 400 Level FlightAware ADS-B
Sat 06:17:42 AM 51.4645 -0.3456 90° East 211 243 1,900 600 Climbing FlightAware ADS-B (KPGA)
Sat 06:17:48 AM 51.4646 -0.3296 90° East 222 255 2,000 857 Climbing FlightAware ADS-B
Sat 06:17:56 AM 51.4645 -0.3211 92° East 227 261 2,100 1,500 Climbing FlightAware ADS-B
Sat 06:18:00 AM 51.4638 -0.3112 104° East 223 257 2,300 2,667 Climbing FlightAware ADS-B (EGLF / FAB)
Sat 06:18:05 AM 51.4615 -0.3018 113° Southeast 218 251 2,500 2,000 Climbing FlightAware ADS-B
Sat 06:18:06 AM 51.4611 -0.3004 117° Southeast 215 247 2,500 2,727 Level FlightAware ADS-B
Sat 06:18:16 AM 51.4543 -0.2876 140° Southeast 204 235 3,000 2,500 Climbing FlightAware ADS-B
Sat 06:18:18 AM 51.4532 -0.2867 147° Southeast 201 231 3,000 1,800 Level FlightAware ADS-B (EGLC / LCY)
Sat 06:18:26 AM 51.4466 -0.2815 162° South 197 227 3,300 2,182 Climbing FlightAware ADS-B
Sat 06:18:29 AM 51.4435 -0.2802 168° South 196 226 3,400 2,571 Climbing FlightAware ADS-B
Sat 06:18:33 AM 51.4404 -0.2796 173° South 193 222 3,600 4,000 Climbing FlightAware ADS-B
Sat 06:18:35 AM 51.4390 -0.2793 172° South 193 222 3,800 -1,800 Climbing FlightAware ADS-B
Sat 06:18:43 AM 51.4496 -0.2831 164° South 197 227 3,300 1,600 Descending FlightAware ADS-B
Sat 06:18:50 AM 51.4252 -0.2770 174° South 196 226 4,200 6,600 Climbing FlightAware ADS-B
Sat 06:18:53 AM 51.4223 -0.2765 175° South 197 227 4,400 2,000 Climbing FlightAware ADS-B (EGLC / LCY)
Sat 06:19:05 AM 51.4113 -0.2751 175° South 202 232 4,700 1,579 Climbing FlightAware ADS-B
Sat 06:19:12 AM 51.4045 -0.2741 176° South 205 236 4,900 2,000 Climbing FlightAware ADS-B
Sat 06:19:17 AM 51.4030 -0.2740 183° South 205 236 5,100 1,714 Climbing FlightAware ADS-B
Sat 06:19:19 AM 51.3982 -0.2743 185° South 206 237 5,100 1,000 Level FlightAware ADS-B
Sat 06:19:23 AM 51.3943 -0.2754 192° South 209 241 5,200 750 Climbing FlightAware ADS-B
Sat 06:19:27 AM 51.3902 -0.2782 206° Southwest 216 249 5,200  Level FlightAware ADS-B
Sat 06:19:29 AM 51.3902 -0.2782 206° Southwest 217 250 5,200 1,500 Level FlightAware ADS-B
Sat 06:19:31 AM 51.3872 -0.2805 211° Southwest 220 253 5,300 1,714 Climbing FlightAware ADS-B
Sat 06:19:36 AM 51.3830 -0.2853 217° Southwest 221 254 5,400 2,000 Climbing FlightAware ADS-B
Sat 06:19:37 AM 51.3842 -0.2843 218° Southwest 223 257 5,500 1,500 Climbing FlightAware ADS-B (EGLF / FAB)
Sat 06:19:40 AM 51.3802 -0.2893 218° Southwest 223 257 5,500  Level FlightAware ADS-B (EGLF / FAB)
Sat 06:19:46 AM 51.3751 -0.2961 223° Southwest 228 262 5,500  Level FlightAware ADS-B
Sat 06:19:49 AM 51.3730 -0.3000 231° Southwest 236 272 5,500  Level FlightAware ADS-B
Sat 06:19:51 AM 51.3717 -0.3028 233° Southwest 237 273 5,500 1,000 Level FlightAware ADS-B
Sat 06:19:55 AM 51.3698 -0.3089 244° Southwest 242 278 5,600 750 Climbing FlightAware ADS-B
Sat 06:19:59 AM 51.3680 -0.3157 252° West 249 287 5,600  Level FlightAware ADS-B
Sat 06:20:06 AM 51.3666 -0.3285 261° West 256 295 5,600 600 Level FlightAware ADS-B
Sat 06:20:09 AM 51.3662 -0.3343 264° West 262 302 5,700 667 Climbing FlightAware ADS-B
Sat 06:20:15 AM 51.3656 -0.3481 267° West 269 310 5,700 -600 Level FlightAware ADS-B
Sat 06:20:19 AM 51.3657 -0.3542 270° West 272 313 5,600  Descending FlightAware ADS-B (EGKK / LGW)
Sat 06:20:31 AM 51.3652 -0.3784 270° West 275 316 5,700  Climbing FlightAware ADS-B
Sat 06:20:45 AM 51.3652 -0.3927 270° West 275 316 5,600 -400 Descending FlightAware ADS-B (EGLC / LCY)
Sat 06:20:46 AM 51.3652 -0.4110 270° West 275 316 5,600  Level FlightAware ADS-B
Sat 06:20:51 AM 51.3653 -0.4172 270° West 276 318 5,600  Level FlightAware ADS-B (EGLF / FAB)
Sat 06:21:05 AM 51.3656 -0.4500 271° West 277 319 5,600  Level FlightAware ADS-B
Sat 06:21:08 AM 51.3656 -0.4541 270° West 277 319 5,600 375 Level FlightAware ADS-B
Sat 06:21:21 AM 51.3655 -0.4827 270° West 278 320 5,700 400 Climbing FlightAware ADS-B
Sat 06:21:23 AM 51.3655 -0.4868 269° West 278 320 5,700  Level FlightAware ADS-B
Sat 06:21:29 AM 51.3653 -0.4993 268° West 277 319 5,700 -545 Level FlightAware ADS-B
Sat 06:21:34 AM 51.3646 -0.5095 261° West 274 315 5,600 -857 Descending FlightAware ADS-B
Sat 06:21:36 AM 51.3643 -0.5114 260° West 270 311 5,600  Level FlightAware ADS-B (KSCH)
Sat 06:21:40 AM 51.3629 -0.5192 255° West 270 311 5,600 750 Level FlightAware ADS-B
Sat 06:21:44 AM 51.3609 -0.5284 247° West 266 306 5,700 600 Climbing FlightAware ADS-B
Sat 06:21:50 AM 51.3578 -0.5389 244° Southwest 263 303 5,700  Level FlightAware ADS-B
Sat 06:21:53 AM 51.3564 -0.5425 243° Southwest 263 303 5,700 -1,000 Level FlightAware ADS-B
Sat 06:21:56 AM 51.3647 -0.5074 252° West 269 310 5,600  Descending FlightAware ADS-B
Sat 06:22:05 AM 51.3503 -0.5615 244° Southwest 259 298 5,700 500 Climbing FlightAware ADS-B (EGKK / LGW)
Sat 06:22:08 AM 51.3475 -0.5700 242° Southwest 262 302 5,700  Level FlightAware ADS-B
Sat 06:22:11 AM 51.3462 -0.5733 244° Southwest 259 298 5,700  Level FlightAware ADS-B (EGHI / SOU)
Sat 06:22:24 AM 51.3389 -0.5957 242° Southwest 262 302 5,700  Level FlightAware ADS-B
Sat 06:22:31 AM 51.3344 -0.6094 244° Southwest 259 298 5,700  Level FlightAware ADS-B (EGHI / SOU)
Sat 06:22:40 AM 51.3295 -0.6248 242° Southwest 262 302 5,700  Level FlightAware ADS-B
Sat 06:22:43 AM 51.3283 -0.6283 244° Southwest 259 298 5,700  Level FlightAware ADS-B (EGKK / LGW)
Sat 06:22:51 AM 51.3235 -0.6420 244° Southwest 259 298 5,700  Level FlightAware ADS-B (EGHI / SOU)
Sat 06:22:56 AM 51.3207 -0.6506 242° Southwest 263 303 5,700  Level FlightAware ADS-B
Sat 06:23:01 AM 51.3181 -0.6593 244° Southwest 259 298 5,700  Level FlightAware ADS-B (KSCH)
Sat 06:23:12 AM 51.3118 -0.6783 242° Southwest 264 304 5,700  Level FlightAware ADS-B
Sat 06:23:21 AM 51.3067 -0.6938 243° Southwest 265 305 5,700 375 Level FlightAware ADS-B (EGLF / FAB)
Sat 06:23:28 AM 51.3023 -0.7077 243° Southwest 267 307 5,800 1,200 Climbing FlightAware ADS-B
Sat 06:23:31 AM 51.3012 -0.7114 243° Southwest 266 306 5,900 2,000 Climbing FlightAware ADS-B (EGLF / FAB)
Sat 06:23:34 AM 51.2993 -0.7186 246° West 270 311 6,000 2,571 Climbing FlightAware ADS-B
Sat 06:23:38 AM 51.2977 -0.7243 251° West 273 314 6,200 2,000 Climbing FlightAware ADS-B
Sat 06:23:40 AM 51.2979 -0.7242 255° West 276 318 6,200 2,000 Level FlightAware ADS-B (KPGA)
Sat 06:23:44 AM 51.2963 -0.7362 262° West 281 323 6,400 2,250 Climbing FlightAware ADS-B
Sat 06:23:48 AM 51.2960 -0.7446 269° West 286 329 6,500 2,250 Climbing FlightAware ADS-B
Sat 06:23:52 AM 51.2964 -0.7531 275° West 289 333 6,700 2,571 Climbing FlightAware ADS-B
Sat 06:23:55 AM 51.2970 -0.7594 278° West 291 335 6,800 3,000 Climbing FlightAware ADS-B
Sat 06:23:56 AM 51.2974 -0.7637 281° West 292 336 6,900 2,400 Climbing FlightAware ADS-B
Sat 06:24:10 AM 51.3018 -0.7913 285° West 295 339 7,400 2,250 Climbing FlightAware ADS-B
Sat 06:24:20 AM 51.3035 -0.8019 285° West 296 341 7,800 2,400 Climbing FlightAware ADS-B (EGLF / FAB)
Sat 06:24:25 AM 51.3068 -0.8232 284° West 297 342 8,000 2,400 Climbing FlightAware ADS-B
Sat 06:24:40 AM 51.3120 -0.8572 284° West 299 344 8,600 2,118 Climbing FlightAware ADS-B
Sat 06:24:42 AM 51.3113 -0.8530 283° West 299 344 8,600 2,308 Level FlightAware ADS-B (EGLF / FAB)
Sat 06:24:53 AM 51.3158 -0.8831 283° West 299 344 9,100 2,400 Climbing FlightAware ADS-B
Sat 06:24:57 AM 51.3172 -0.8939 282° West 299 344 9,200 2,000 Climbing FlightAware ADS-B
Sat 06:25:02 AM 51.3185 -0.9026 283° West 298 343 9,400 2,727 Climbing FlightAware ADS-B (LKVR)
Sat 06:25:08 AM 51.3203 -0.9178 282° West 299 344 9,700 4,286 Climbing FlightAware ADS-B
Sat 06:25:09 AM 51.3217 -0.9287 281° West 299 344 9,900 2,250 Climbing FlightAware ADS-B
Sat 06:25:24 AM 51.3243 -0.9480 280° West 298 343 10,300 1,400 Climbing FlightAware ADS-B (EGKK / LGW)
Sat 06:25:39 AM 51.3288 -0.9831 281° West 308 354 10,600 1,154 Climbing FlightAware ADS-B
Sat 06:25:50 AM 51.3318 -1.0081 280° West 315 362 10,800 1,333 Climbing FlightAware ADS-B (EGHH / BOH)
Sat 06:25:57 AM 51.3339 -1.0268 281° West 327 376 11,000 947 Climbing FlightAware ADS-B (EGDM)
Sat 06:26:09 AM 51.3372 -1.0530 281° West 333 383 11,100 429 Climbing FlightAware ADS-B
Sat 06:26:11 AM 51.3373 -1.0554 281° West 333 383 11,100 909 Level FlightAware ADS-B (EGLF / FAB)
Sat 06:26:42 AM 51.3472 -1.1359 281° West 358 412 11,600 1,000 Climbing FlightAware ADS-B
Sat 06:26:53 AM 51.3510 -1.1648 283° West 367 422 11,800 1,286 Climbing FlightAware ADS-B
Sat 06:26:56 AM 51.3499 -1.1569 285° West 369 425 11,900 857 Climbing FlightAware ADS-B
Sat 06:27:00 AM 51.3545 -1.1832 289° West 375 432 11,900  Level FlightAware ADS-B
Sat 06:27:01 AM 51.3542 -1.1831 291° West 378 435 11,900 750 Level FlightAware ADS-B (EGHA)
Sat 06:27:08 AM 51.3601 -1.2039 295° West 382 440 12,000 1,200 Climbing FlightAware ADS-B
Sat 06:27:11 AM 51.3629 -1.2141 299° West 387 445 12,100 2,000 Climbing FlightAware ADS-B (EGHA)
Sat 06:27:14 AM 51.3652 -1.2190 300° West 388 447 12,200 1,333 Climbing FlightAware ADS-B
Sat 06:27:20 AM 51.3715 -1.2360 304° West 393 452 12,300 1,200 Climbing FlightAware ADS-B
Sat 06:27:29 AM 51.3810 -1.2553 305° West 394 453 12,500 1,000 Climbing FlightAware ADS-B (EGHI / SOU)
Sat 06:27:32 AM 51.3799 -1.2528 306° West 399 459 12,500 1,714 Level FlightAware ADS-B (EGLC / LCY)
Sat 06:27:50 AM 51.4047 -1.3075 307° West 403 464 13,100 2,000 Climbing FlightAware ADS-B
Sat 06:28:02 AM 51.4174 -1.3341 307° West 405 466 13,500 2,000 Climbing FlightAware ADS-B (EGDJ / UPV)
Sat 06:28:20 AM 51.4383 -1.3799 307° West 408 470 14,100 2,842 Climbing FlightAware ADS-B
Sat 06:28:21 AM 51.4388 -1.3800 307° West 408 470 14,400 1,548 Climbing FlightAware ADS-B (EGHS)
Sat 06:28:51 AM 51.4735 -1.4558 307° West 414 476 14,900 600 Climbing FlightAware ADS-B
Sat 06:29:21 AM 51.5067 -1.5274 307° West 416 479 15,000 194 Climbing FlightAware ADS-B (EGLF / FAB)
Sat 06:29:22 AM 51.5079 -1.5299 307° West 416 479 15,000  Level FlightAware ADS-B
Sat 06:29:31 AM 51.5188 -1.5521 306° West 411 473 15,000 200 Level FlightAware ADS-B (EGHI / SOU)
Sat 06:29:52 AM 51.5436 -1.6065 307° West 418 481 15,100 968 Climbing FlightAware ADS-B
Sat 06:30:02 AM 51.5555 -1.6315 308° West 419 482 15,500 2,571 Climbing FlightAware ADS-B
Sat 06:30:06 AM 51.5598 -1.6414 307° West 417 480 15,700 1,714 Climbing FlightAware ADS-B (EGHA)
Sat 06:30:23 AM 51.5795 -1.6811 307° West 421 484 16,100 1,800 Climbing FlightAware ADS-B
Sat 06:30:26 AM 51.5830 -1.6911 306° West 423 487 16,300 2,000 Climbing FlightAware ADS-B
Sat 06:30:41 AM 51.6007 -1.7292 307° West 424 488 16,700 1,500 Climbing FlightAware ADS-B
Sat 06:30:54 AM 51.6161 -1.7623 306° West 426 490 17,000 1,565 Climbing FlightAware ADS-B
Sat 06:31:04 AM 51.6273 -1.7853 305° West 423 487 17,300 1,714 Climbing FlightAware ADS-B
Sat 06:31:15 AM 51.6405 -1.8162 305° West 423 487 17,600 1,667 Climbing FlightAware ADS-B
Sat 06:31:22 AM 51.6481 -1.8320 305° West 426 490 17,800 1,333 Climbing FlightAware ADS-B
Sat 06:31:24 AM 51.6509 -1.8398 305° West 431 496 17,800 3,600 Level FlightAware ADS-B
Sat 06:31:27 AM 51.6462 -1.8294 306° West 431 496 18,100 2,182 Climbing FlightAware ADS-B
Sat 06:31:35 AM 51.6630 -1.8658 305° West 427 491 18,200 1,263 Climbing FlightAware ADS-B (EGHH / BOH)
Sat 06:31:46 AM 51.6755 -1.8948 305° West 429 494 18,500 1,636 Climbing FlightAware ADS-B (EGHI / SOU)
Sat 06:31:57 AM 51.6884 -1.9237 306° West 435 501 18,800 1,500 Climbing FlightAware ADS-B
Sat 06:32:06 AM 51.6995 -1.9502 305° West 433 498 19,000 1,846 Climbing FlightAware ADS-B (KSCH)
Sat 06:32:10 AM 51.6990 -1.9473 306° West 437 503 19,200 1,565 Climbing FlightAware ADS-B (EGLC / LCY)
Sat 06:32:29 AM 51.7259 -2.0084 306° West 441 507 19,600 1,500 Climbing FlightAware ADS-B
Sat 06:32:30 AM 51.7265 -2.0111 305° West 438 504 19,700 1,800 Climbing FlightAware ADS-B (EGLF / FAB)
Sat 06:32:59 AM 51.7624 -2.0921 305° West 445 512 20,500 1,667 Climbing FlightAware ADS-B
Sat 06:33:06 AM 51.7648 -2.0973 305° West 445 512 20,700 1,714 Climbing FlightAware ADS-B
Sat 06:33:20 AM 51.7874 -2.1463 306° West 450 518 21,100 1,412 Climbing FlightAware ADS-B (EGDM)
Sat 06:33:40 AM 51.8106 -2.1980 305° West 448 516 21,500 1,385 Climbing FlightAware ADS-B (EGHH / BOH)
Sat 06:33:46 AM 51.8112 -2.2007 306° West 454 522 21,700 1,800 Climbing FlightAware ADS-B (EGDX / DGX)
Sat 06:33:50 AM 51.8241 -2.2282 305° West 450 518 21,800 1,800 Climbing FlightAware ADS-B (EGHH / BOH)
Sat 06:33:56 AM 51.8317 -2.2477 305° West 451 519 22,000 1,714 Climbing FlightAware ADS-B (KSCH)
Sat 06:34:04 AM 51.8415 -2.2698 305° West 452 520 22,200 1,765 Climbing FlightAware ADS-B (KSCH)
Sat 06:34:13 AM 51.8465 -2.2810 306° West 458 527 22,500 1,846 Climbing FlightAware ADS-B (EGDX / DGX)
Sat 06:34:17 AM 51.8573 -2.3032 306° West 459 528 22,600 1,500 Climbing FlightAware ADS-B
Sat 06:34:25 AM 51.8465 -2.2810 305° West 460 529 22,800 857 Climbing FlightAware ADS-B (EGDX / DGX)
Sat 06:34:31 AM 51.8741 -2.3428 305° West 452 520 22,800 1,200 Level FlightAware ADS-B (EGHI / SOU)
Sat 06:34:45 AM 51.8905 -2.3831 302° West 456 525 23,200 1,750 Climbing FlightAware ADS-B (EGHH / BOH)
Sat 06:34:55 AM 51.9018 -2.4119 302° West 459 528 23,500 1,500 Climbing FlightAware ADS-B (KEGE)
Sat 06:35:17 AM 51.9279 -2.4791 302° West 461 531 24,000 1,448 Climbing FlightAware ADS-B (EGDJ / UPV)
Sat 06:35:24 AM 51.9359 -2.4999 303° West 465 535 24,200 1,750 Climbing FlightAware ADS-B (EGDM)
Sat 06:35:41 AM 51.9549 -2.5506 301° West 467 537 24,700 1,625 Climbing FlightAware ADS-B
Sat 06:36:12 AM 51.9901 -2.6435 301° West 470 541 25,500 1,500 Climbing FlightAware ADS-B
Sat 06:36:17 AM 51.9954 -2.6555 301° West 470 541 25,600 1,200 Climbing FlightAware ADS-B (EGHH / BOH)
Sat 06:36:27 AM 52.0064 -2.6852 301° West 467 537 25,800 1,125 Climbing FlightAware ADS-B (EGHH / BOH)
Sat 06:36:33 AM 52.0129 -2.7035 301° West 469 540 25,900 1,200 Climbing FlightAware ADS-B (KSCH)
Sat 06:36:37 AM 52.0184 -2.7185 301° West 470 541 26,000 1,714 Climbing FlightAware ADS-B (KEGE)
Sat 06:36:47 AM 52.0296 -2.7458 301° West 472 543 26,300 1,579 Climbing FlightAware ADS-B (EGHH / BOH)
Sat 06:36:56 AM 52.0400 -2.7734 301° West 473 544 26,500 1,440 Climbing FlightAware ADS-B (EGHH / BOH)
Sat 06:37:12 AM 52.0581 -2.8218 302° West 478 550 26,900 1,655 Climbing FlightAware ADS-B
Sat 06:37:25 AM 52.0739 -2.8614 301° West 473 544 27,300 2,000 Climbing FlightAware ADS-B
Sat 06:37:30 AM 52.0794 -2.8768 301° West 472 543 27,500 2,000 Climbing FlightAware ADS-B
Sat 06:37:40 AM 52.0902 -2.9039 302° West 475 547 27,800 2,000 Climbing FlightAware ADS-B
Sat 06:37:45 AM 52.0972 -2.9224 301° West 470 541 28,000 2,400 Climbing FlightAware ADS-B (EGDJ / UPV)
Sat 06:37:50 AM 52.1035 -2.9404 301° West 469 540 28,200 2,000 Climbing FlightAware ADS-B
Sat 06:38:00 AM 52.1111 -2.9615 302° West 472 543 28,500 1,714 Climbing FlightAware ADS-B
Sat 06:38:11 AM 52.1268 -3.0006 301° West 467 537 28,800 1,800 Climbing FlightAware ADS-B
Sat 06:38:20 AM 52.1376 -3.0309 301° West 467 537 29,100 1,692 Climbing FlightAware ADS-B
Sat 06:38:50 AM 52.1716 -3.1208 301° West 468 539 29,900 1,556 Climbing FlightAware ADS-B
Sat 06:39:14 AM 52.1988 -3.1927 301° West 466 536 30,500 1,556 Climbing FlightAware ADS-B (LKVR)
Sat 06:39:17 AM 52.2020 -3.2016 302° West 467 537 30,600 1,500 Climbing FlightAware ADS-B
Sat 06:39:38 AM 52.2254 -3.2615 302° West 464 534 31,100 1,440 Climbing FlightAware ADS-B
Sat 06:39:42 AM 52.2287 -3.2706 302° West 466 536 31,200 1,412 Climbing FlightAware ADS-B (KSCH)
Sat 06:39:55 AM 52.2437 -3.3121 301° West 464 534 31,500 1,231 Climbing FlightAware ADS-B
Sat 06:40:21 AM 52.2729 -3.3894 302° West 460 529 32,000 682 Climbing FlightAware ADS-B
Sat 06:40:39 AM 52.2933 -3.4458 302° West 459 528 32,000  Level FlightAware ADS-B
Sat 06:41:04 AM 52.3206 -3.5169 300° West 455 524 32,000  Level FlightAware ADS-B (KEGE)
Sat 06:41:08 AM 52.3249 -3.5287 302° West 458 527 32,000  Level FlightAware ADS-B
Sat 06:41:21 AM 52.3391 -3.5672 302° West 458 527 32,000  Level FlightAware ADS-B
Sat 06:41:26 AM 52.3442 -3.5820 300° West 454 522 32,000  Level FlightAware ADS-B (KSCH)
Sat 06:41:40 AM 52.3601 -3.6263 300° West 454 522 32,000  Level FlightAware ADS-B (LKVR)
Sat 06:41:47 AM 52.3681 -3.6471 300° West 454 522 32,000  Level FlightAware ADS-B (LKVR)
Sat 06:41:56 AM 52.3772 -3.6707 300° West 454 522 32,000  Level FlightAware ADS-B (EGHH / BOH)
Sat 06:42:09 AM 52.3919 -3.7124 300° West 454 522 32,000  Level FlightAware ADS-B (LKVR)
Sat 06:42:18 AM 52.4013 -3.7363 301° West 459 528 32,000  Level FlightAware ADS-B (EPBY / BZG)
Sat 06:42:33 AM 52.4171 -3.7808 301° West 458 527 32,000  Level FlightAware ADS-B (EGCW)
Sat 06:42:37 AM 52.4223 -3.7927 300° West 455 524 32,000  Level FlightAware ADS-B (EGHH / BOH)
Sat 06:42:50 AM 52.4368 -3.8343 301° West 458 527 32,000  Level FlightAware ADS-B
Sat 06:42:59 AM 52.4467 -3.8609 300° West 454 522 32,000  Level FlightAware ADS-B (EGHH / BOH)
Sat 06:43:12 AM 52.4598 -3.8969 300° West 455 524 32,000  Level FlightAware ADS-B (EGHH / BOH)
Sat 06:43:25 AM 52.4752 -3.9384 300° West 455 524 32,000  Level FlightAware ADS-B (EGHH / BOH)
Sat 06:43:32 AM 52.4816 -3.9565 300° West 455 524 32,000  Level FlightAware ADS-B
Sat 06:43:54 AM 52.5064 -4.0250 300° West 456 525 32,000  Level FlightAware ADS-B
Sat 06:44:27 AM 52.5411 -4.1208 301° West 458 527 32,000  Level FlightAware ADS-B
Sat 06:44:42 AM 52.5579 -4.1658 300° West 454 522 32,000  Level FlightAware ADS-B (EGHH / BOH)
Sat 06:45:01 AM 52.5783 -4.2223 300° West 454 522 32,000  Level FlightAware ADS-B
Sat 06:45:33 AM 52.6128 -4.3182 301° West 457 526 32,000  Level FlightAware ADS-B (EGCW)
Sat 06:46:03 AM 52.6426 -4.4022 300° West 458 527 32,000  Level FlightAware ADS-B (EGCW)
Sat 06:46:32 AM 52.6759 -4.4952 300° West 458 527 32,000  Level FlightAware ADS-B (EGCW)
Sat 06:46:48 AM 52.6936 -4.5433 301° West 459 528 32,000  Level FlightAware ADS-B
Sat 06:47:08 AM 52.7141 -4.6035 300° West 461 531 32,000  Level FlightAware ADS-B
Sat 06:47:22 AM 52.7141 -4.6035 300° West 462 532 32,000  Level FlightAware ADS-B (EGCW)
Sat 06:47:39 AM 52.7362 -4.6642 300° West 462 532 32,000  Level FlightAware ADS-B (EGCW)
Sat 06:48:05 AM 52.7771 -4.7802 299° West 460 529 32,000  Level FlightAware ADS-B (KLEX)
Sat 06:48:11 AM 52.7823 -4.7955 300° West 464 534 32,000  Level FlightAware ADS-B
Sat 06:48:22 AM 52.7947 -4.8291 300° West 464 534 32,000  Level FlightAware ADS-B
Sat 06:48:32 AM 52.8055 -4.8596 299° West 461 531 32,000  Level FlightAware ADS-B (KLEX)
Sat 06:48:42 AM 52.8140 -4.8841 300° West 465 535 32,000  Level FlightAware ADS-B (EGCW)
Sat 06:48:53 AM 52.8284 -4.9272 301° West 464 534 32,000  Level FlightAware ADS-B
Sat 06:49:24 AM 52.8610 -5.0192 300° West 465 535 32,000  Level FlightAware ADS-B
Sat 06:49:41 AM 52.8796 -5.0714 302° West 464 534 32,000  Level FlightAware ADS-B
Sat 06:49:45 AM 52.8840 -5.0835 302° West 465 535 32,000  Level FlightAware ADS-B (EPBY / BZG)
Sat 06:49:52 AM 52.8938 -5.1064 310° West 471 542 32,000  Level FlightAware ADS-B (EGCW)
Sat 06:49:57 AM 52.8984 -5.1144 306° West 468 539 32,000  Level FlightAware ADS-B
Sat 06:50:10 AM 52.9216 -5.1527 317° Northwest 476 548 32,000  Level FlightAware ADS-B
Sat 06:50:20 AM 52.9381 -5.1777 316° Northwest 470 541 32,000  Level FlightAware ADS-B (KLEX)
Sat 06:50:54 AM 52.9910 -5.2638 315° West 473 544 32,000  Level FlightAware ADS-B
Sat 06:51:26 AM 53.0389 -5.3449 314° West 471 542 32,000  Level FlightAware ADS-B
Sat 06:51:48 AM 53.0704 -5.4032 312° West 470 541 32,000  Level FlightAware ADS-B
Sat 06:52:19 AM 53.1173 -5.4856 314° West 473 544 32,000  Level FlightAware ADS-B
Sat 06:52:49 AM 53.1642 -5.5653 315° West 475 547 32,000  Level FlightAware ADS-B
Sat 06:53:19 AM 53.2096 -5.6397 315° West 472 543 32,000  Level FlightAware ADS-B
Sat 06:53:49 AM 53.2557 -5.7170 315° West 472 543 32,000  Level FlightAware ADS-B
Sat 06:54:19 AM 53.3015 -5.7945 314° West 465 535 32,000  Level FlightAware ADS-B (KLEX)
Sat 06:54:40 AM 53.3348 -5.8513 314° West 464 534 32,000  Level FlightAware ADS-B (KLEX)
Sat 06:55:14 AM 53.3867 -5.9393 315° West 469 540 32,000  Level FlightAware ADS-B
Sat 06:55:30 AM 53.4090 -5.9754 314° West 463 533 32,000  Level FlightAware ADS-B (KLEX)
Sat 06:55:54 AM 53.4473 -6.0401 314° West 464 534 32,000  Level FlightAware ADS-B (KLEX)
Sat 06:56:07 AM 53.4671 -6.0736 315° West 468 539 32,000  Level FlightAware ADS-B
Sat 06:56:39 AM 53.5157 -6.1590 315° West 468 539 32,000  Level FlightAware ADS-B
Sat 06:57:11 AM 53.5631 -6.2394 315° West 469 540 32,000  Level FlightAware ADS-B
Sat 06:57:47 AM 53.6175 -6.3337 314° West 471 542 32,000  Level FlightAware ADS-B (EIDW / DUB)
Sat 06:58:20 AM 53.6589 -6.4042 314° West 472 543 32,000  Level FlightAware ADS-B
Sat 06:58:53 AM 53.7190 -6.5069 314° West 471 542 32,000  Level FlightAware ADS-B
Sat 06:59:05 AM 53.7371 -6.5385 313° West 466 536 32,000  Level FlightAware ADS-B (KLEX)
Sat 06:59:23 AM 53.7652 -6.5884 313° West 466 536 32,000  Level FlightAware ADS-B (KLEX)
Sat 06:59:26 AM 53.7713 -6.5991 313° West 466 536 32,000  Level FlightAware ADS-B
Sat 06:59:59 AM 53.8186 -6.6810 314° West 472 543 32,000  Level FlightAware ADS-B
Sat 07:00:13 AM 53.8414 -6.7208 313° West 466 536 32,000  Level FlightAware ADS-B
Sat 07:00:44 AM 53.8868 -6.8004 314° West 471 542 32,000  Level FlightAware ADS-B
Sat 07:01:07 AM 53.9229 -6.8642 313° West 466 536 32,000  Level FlightAware ADS-B
Sat 07:01:26 AM 53.9505 -6.9120 314° West 471 542 32,000  Level FlightAware ADS-B
Sat 07:01:59 AM 54.0011 -7.0000 314° West 472 543 32,000  Level FlightAware ADS-B
Sat 07:02:17 AM 54.0292 -7.0507 313° West 467 537 32,000  Level FlightAware ADS-B (KLEX)
Sat 07:02:25 AM 54.0400 -7.0696 313° West 467 537 32,000  Level FlightAware ADS-B
Sat 07:02:37 AM 54.0588 -7.1042 313° West 467 537 32,000  Level FlightAware ADS-B (KLEX)
Sat 07:03:10 AM 54.1076 -7.1902 314° West 473 544 32,000  Level FlightAware ADS-B
Sat 07:03:42 AM 54.1571 -7.2789 314° West 473 544 32,000  Level FlightAware ADS-B
Sat 07:04:12 AM 54.2019 -7.3601 314° West 473 544 32,000  Level FlightAware ADS-B (KLEX)
Sat 07:04:42 AM 54.2477 -7.4413 314° West 473 544 32,000  Level FlightAware ADS-B
Sat 07:05:14 AM 54.2934 -7.5251 314° West 473 544 32,000  Level FlightAware ADS-B
Sat 07:05:45 AM 54.3402 -7.6092 313° West 472 543 32,000  Level FlightAware ADS-B
Sat 07:06:16 AM 54.3878 -7.6962 313° West 471 542 32,000  Level FlightAware ADS-B
Sat 07:06:46 AM 54.4326 -7.7776 313° West 472 543 32,000  Level FlightAware ADS-B
Sat 07:07:29 AM 54.4925 -7.8874 313° West 474 545 32,000  Level FlightAware ADS-B
Sat 07:08:09 AM 54.5572 -8.0055 313° West 474 545 32,000  Level FlightAware ADS-B
Sat 07:08:39 AM 54.6002 -8.0855 313° West 472 543 32,000  Level FlightAware ADS-B
Sat 07:08:40 AM 54.6031 -8.0917 313° West 472 543 32,000  Level FlightAware UK
Sat 07:09:12 AM 54.6480 -8.1737 313° West 472 543 32,000  Level FlightAware ADS-B
Sat 07:10:08 AM 54.7331 -8.3309 313° West 471 542 32,000  Level FlightAware ADS-B
Sat 07:10:40 AM 54.7810 -8.4233 313° West 472 543 32,000  Level FlightAware UK
Sat 07:10:47 AM 54.7912 -8.4419 313° West 473 544 32,000  Level FlightAware ADS-B
Sat 07:11:28 AM 54.8513 -8.5536 313° West 476 548 32,000  Level FlightAware ADS-B
Sat 07:12:08 AM 54.9118 -8.6689 312° West 476 548 32,000  Level FlightAware ADS-B
Sat 07:12:47 AM 54.9682 -8.7759 312° West 476 548 32,000  Level FlightAware ADS-B
Sat 07:13:21 AM 55.0154 -8.8663 312° West 476 548 32,000  Level FlightAware ADS-B
Sat 07:13:51 AM 55.0609 -8.9540 312° West 476 548 32,000  Level FlightAware ADS-B
Sat 07:14:23 AM 55.1103 -9.0475 312° West 476 548 32,000  Level FlightAware ADS-B
Sat 07:15:02 AM 55.1690 -9.1616 312° West 477 549 32,000  Level FlightAware ADS-B
Sat 07:15:56 AM 55.2481 -9.3161 312° West 476 548 32,000  Level FlightAware ADS-B
Sat 07:16:02 AM 55.2550 -9.3278 312° West 476 548 32,000  Level FlightAware ADS-B
Sat 07:16:36 AM 55.3061 -9.4280 311° West 470 541 32,000  Level FlightAware ADS-B
Sat 07:17:47 AM 55.4105 -9.6344 311° West 469 540 32,000  Level FlightAware ADS-B
Sat 07:18:29 AM 55.4709 -9.7520 311° West 467 537 32,000  Level FlightAware ADS-B
Sat 07:19:01 AM 55.5176 -9.8467 311° West 465 535 32,000  Level FlightAware ADS-B
Sat 07:19:55 AM 55.5943 -9.9988 311° West 465 535 32,000 Level FlightAware ADS-B
Sat 07:22:00 AM 55.7582 -10.3593 309° West  Level Estimated
Sat 07:23:00 AM 55.8365 -10.5334 309° West  Level Estimated
Sat 07:24:00 AM 55.9146 -10.7082 309° West  Level Estimated
Sat 07:25:00 AM 55.9924 -10.8837 308° West  Level Estimated
Sat 07:26:00 AM 56.0699 -11.0599 308° West  Level Estimated
Sat 07:27:00 AM 56.1472 -11.2369 308° West  Level Estimated
Sat 07:28:00 AM 56.2242 -11.4145 308° West  Level Estimated
Sat 07:29:00 AM 56.3010 -11.5929 308° West  Level Estimated
Sat 07:30:00 AM 56.3775 -11.7719 308° West  Level Estimated
Sat 07:31:00 AM 56.4538 -11.9517 308° West  Level Estimated
Sat 07:32:00 AM 56.5298 -12.1323 307° West  Level Estimated
Sat 07:33:00 AM 56.6056 -12.3135 307° West  Level Estimated
Sat 07:34:00 AM 56.6810 -12.4955 307° West  Level Estimated
Sat 07:35:00 AM 56.7562 -12.6782 307° West  Level Estimated
Sat 07:36:00 AM 56.8312 -12.8616 307° West  Level Estimated
Sat 07:37:00 AM 56.9059 -13.0457 307° West  Level Estimated
Sat 07:38:00 AM 56.9803 -13.2306 306° West  Level Estimated
Sat 07:39:00 AM 57.0544 -13.4163 306° West  Level Estimated
Sat 07:40:00 AM 57.1283 -13.6027 306° West  Level Estimated
Sat 07:41:00 AM 57.2018 -13.7898 306° West  Level Estimated
Sat 07:42:00 AM 57.2751 -13.9777 306° West  Level Estimated
Sat 07:43:00 AM 57.3481 -14.1663 306° West  Level Estimated
Sat 07:44:00 AM 57.4209 -14.3556 306° West  Level Estimated
Sat 07:45:00 AM 57.4933 -14.5458 305° West  Level Estimated
Sat 07:46:00 AM 57.5655 -14.7366 305° West  Level Estimated
Sat 07:47:00 AM 57.6373 -14.9283 305° West  Level Estimated
Sat 07:48:00 AM 57.7089 -15.1207 305° West  Level Estimated
Sat 07:49:00 AM 57.7802 -15.3138 305° West  Level Estimated
Sat 07:50:00 AM 57.8512 -15.5077 305° West  Level Estimated
Sat 07:51:00 AM 57.9219 -15.7024 304° West  Level Estimated
Sat 07:52:00 AM 57.9923 -15.8978 304° West  Level Estimated
Sat 07:53:00 AM 58.0624 -16.0940 304° West  Level Estimated
Sat 07:54:00 AM 58.1322 -16.2910 304° West  Level Estimated
Sat 07:55:00 AM 58.2017 -16.4888 304° West  Level Estimated
Sat 07:56:00 AM 58.2709 -16.6873 304° West  Level Estimated
Sat 07:57:00 AM 58.3397 -16.8866 303° West  Level Estimated
Sat 07:58:00 AM 58.4083 -17.0867 303° West  Level Estimated
Sat 07:59:00 AM 58.4765 -17.2875 303° West  Level Estimated
Sat 08:00:00 AM 58.5445 -17.4892 303° West  Level Estimated
Sat 08:01:00 AM 58.6121 -17.6916 303° West  Level Estimated
Sat 08:02:00 AM 58.6794 -17.8948 303° West  Level Estimated
Sat 08:03:00 AM 58.7463 -18.0988 302° West  Level Estimated
Sat 08:04:00 AM 58.8130 -18.3036 302° West  Level Estimated
Sat 08:05:00 AM 58.8793 -18.5091 302° West  Level Estimated
Sat 08:06:00 AM 58.9453 -18.7155 302° West  Level Estimated
Sat 08:07:00 AM 59.0110 -18.9226 302° West  Level Estimated
Sat 08:08:00 AM 59.0763 -19.1305 302° West  Level Estimated
Sat 08:09:00 AM 59.1413 -19.3392 301° West  Level Estimated
Sat 08:10:00 AM 59.2060 -19.5487 301° West  Level Estimated
Sat 08:11:00 AM 59.2703 -19.7590 301° West  Level Estimated
Sat 08:12:00 AM 59.3343 -19.9701 301° West  Level Estimated
Sat 08:13:00 AM 59.3980 -20.1820 301° West  Level Estimated
Sat 08:14:00 AM 59.4613 -20.3947 300° West  Level Estimated
Sat 08:15:00 AM 59.5242 -20.6082 300° West  Level Estimated
Sat 08:16:00 AM 59.5868 -20.8225 300° West  Level Estimated
Sat 08:17:00 AM 59.6491 -21.0375 300° West  Level Estimated
Sat 08:18:00 AM 59.7110 -21.2534 300° West  Level Estimated
Sat 08:19:00 AM 59.7725 -21.4701 300° West  Level Estimated
Sat 08:20:00 AM 59.8337 -21.6875 299° West  Level Estimated
Sat 08:21:00 AM 59.8945 -21.9058 299° West  Level Estimated
Sat 08:22:00 AM 59.9550 -22.1249 299° West  Level Estimated
Sat 08:23:00 AM 60.0151 -22.3447 299° West  Level Estimated
Sat 08:24:00 AM 60.0748 -22.5654 299° West  Level Estimated
Sat 08:25:00 AM 60.1342 -22.7868 298° West  Level Estimated
Sat 08:26:00 AM 60.1932 -23.0091 298° West  Level Estimated
Sat 08:27:00 AM 60.2518 -23.2321 298° West  Level Estimated
Sat 08:28:00 AM 60.3101 -23.4560 298° West  Level Estimated
Sat 08:29:00 AM 60.3680 -23.6807 298° West  Level Estimated
Sat 08:30:00 AM 60.4254 -23.9061 297° West  Level Estimated
Sat 08:31:00 AM 60.4825 -24.1323 297° West  Level Estimated
Sat 08:32:00 AM 60.5393 -24.3594 297° West  Level Estimated
Sat 08:33:00 AM 60.5956 -24.5872 297° West  Level Estimated
Sat 08:34:00 AM 60.6516 -24.8158 297° West  Level Estimated
Sat 08:35:00 AM 60.7071 -25.0452 296° West  Level Estimated
Sat 08:36:00 AM 60.7623 -25.2755 296° West  Level Estimated
Sat 08:37:00 AM 60.8170 -25.5065 296° West  Level Estimated
Sat 08:38:00 AM 60.8714 -25.7382 296° West  Level Estimated
Sat 08:39:00 AM 60.9254 -25.9708 296° West  Level Estimated
Sat 08:40:00 AM 60.9789 -26.2042 295° West  Level Estimated
Sat 08:41:00 AM 61.0321 -26.4383 295° West  Level Estimated
Sat 08:42:00 AM 61.0849 -26.6733 295° West  Level Estimated
Sat 08:43:00 AM 61.1372 -26.9090 295° West  Level Estimated
Sat 08:44:00 AM 61.1891 -27.1455 295° West  Level Estimated
Sat 08:45:00 AM 61.2407 -27.3827 294° West  Level Estimated
Sat 08:46:00 AM 61.2918 -27.6208 294° West  Level Estimated
Sat 08:47:00 AM 61.3425 -27.8596 294° West  Level Estimated
Sat 08:48:00 AM 61.3927 -28.0992 294° West  Level Estimated
Sat 08:49:00 AM 61.4426 -28.3395 294° West  Level Estimated
Sat 08:50:00 AM 61.4920 -28.5807 293° West  Level Estimated
Sat 08:51:00 AM 61.5410 -28.8225 293° West  Level Estimated
Sat 08:52:00 AM 61.5896 -29.0652 293° West  Level Estimated
Sat 08:53:00 AM 61.6377 -29.3086 293° West  Level Estimated
Sat 08:54:00 AM 61.6854 -29.5528 292° West  Level Estimated
Sat 08:55:00 AM 61.7327 -29.7977 292° West  Level Estimated
Sat 08:56:00 AM 61.7795 -30.0434 292° West  Level Estimated
Sat 08:57:00 AM 61.8259 -30.2898 292° West  Level Estimated
Sat 08:58:00 AM 61.8718 -30.5369 292° West  Level Estimated
Sat 08:59:00 AM 61.9173 -30.7848 291° West  Level Estimated
Sat 09:00:00 AM 61.9623 -31.0334 291° West  Level Estimated
Sat 09:01:00 AM 62.0070 -31.2828 291° West  Level Estimated
Sat 09:02:00 AM 62.0511 -31.5329 291° West  Level Estimated
Sat 09:03:00 AM 62.0948 -31.7837 291° West  Level Estimated
Sat 09:04:00 AM 62.1381 -32.0352 290° West  Level Estimated
Sat 09:05:00 AM 62.1808 -32.2875 290° West  Level Estimated
Sat 09:06:00 AM 62.2232 -32.5404 290° West  Level Estimated
Sat 09:07:00 AM 62.2650 -32.7941 290° West  Level Estimated
Sat 09:08:00 AM 62.3064 -33.0485 289° West  Level Estimated
Sat 09:09:00 AM 62.3474 -33.3035 289° West  Level Estimated
Sat 09:10:00 AM 62.3878 -33.5593 289° West  Level Estimated
Sat 09:11:00 AM 62.4278 -33.8157 289° West  Level Estimated
Sat 09:12:00 AM 62.4673 -34.0728 288° West  Level Estimated
Sat 09:13:00 AM 62.5064 -34.3306 288° West  Level Estimated
Sat 09:14:00 AM 62.5450 -34.5891 288° West  Level Estimated
Sat 09:15:00 AM 62.5831 -34.8483 288° West  Level Estimated
Sat 09:16:00 AM 62.6207 -35.1081 288° West  Level Estimated
Sat 09:17:00 AM 62.6578 -35.3685 287° West  Level Estimated
Sat 09:18:00 AM 62.6945 -35.6296 287° West  Level Estimated
Sat 09:19:00 AM 62.7306 -35.8914 287° West  Level Estimated
Sat 09:20:00 AM 62.7663 -36.1538 287° West  Level Estimated
Sat 09:21:00 AM 62.8015 -36.4168 286° West  Level Estimated
Sat 09:22:00 AM 62.8362 -36.6804 286° West  Level Estimated
Sat 09:23:00 AM 62.8704 -36.9447 286° West  Level Estimated
Sat 09:24:00 AM 62.9041 -37.2096 286° West  Level Estimated
Sat 09:25:00 AM 62.9373 -37.4750 285° West  Level Estimated
Sat 09:26:00 AM 62.9700 -37.7411 285° West  Level Estimated
Sat 09:27:00 AM 63.0022 -38.0078 285° West  Level Estimated
Sat 09:28:00 AM 63.0339 -38.2750 285° West  Level Estimated
Sat 09:29:00 AM 63.0651 -38.5429 285° West  Level Estimated
Sat 09:30:00 AM 63.0958 -38.8113 284° West  Level Estimated
Sat 09:31:00 AM 63.1259 -39.0802 284° West  Level Estimated
Sat 09:32:00 AM 63.1556 -39.3498 284° West  Level Estimated
Sat 09:33:00 AM 63.1848 -39.6198 284° West  Level Estimated
Sat 09:34:00 AM 63.2134 -39.8904 283° West  Level Estimated
Sat 09:35:00 AM 63.2416 -40.1616 283° West  Level Estimated
Sat 09:36:00 AM 63.2692 -40.4332 283° West  Level Estimated
Sat 09:37:00 AM 63.2963 -40.7054 283° West  Level Estimated
Sat 09:38:00 AM 63.3228 -40.9781 282° West  Level Estimated
Sat 09:39:00 AM 63.3489 -41.2513 282° West  Level Estimated
Sat 09:40:00 AM 63.3744 -41.5249 282° West  Level Estimated
Sat 09:41:00 AM 63.3994 -41.7991 282° West  Level Estimated
Sat 09:42:00 AM 63.4239 -42.0737 281° West  Level Estimated
Sat 09:43:00 AM 63.4478 -42.3488 281° West  Level Estimated
Sat 09:44:00 AM 63.4713 -42.6244 281° West  Level Estimated
Sat 09:45:00 AM 63.4942 -42.9003 281° West  Level Estimated
Sat 09:46:00 AM 63.5165 -43.1768 280° West  Level Estimated
Sat 09:47:00 AM 63.5383 -43.4536 280° West  Level Estimated
Sat 09:48:00 AM 63.5596 -43.7309 280° West  Level Estimated
Sat 09:49:00 AM 63.5804 -44.0086 280° West  Level Estimated
Sat 09:50:00 AM 63.6006 -44.2867 279° West  Level Estimated
Sat 09:51:00 AM 63.6203 -44.5652 279° West  Level Estimated
Sat 09:52:00 AM 63.6394 -44.8440 279° West  Level Estimated
Sat 09:53:00 AM 63.6580 -45.1233 279° West  Level Estimated
Sat 09:54:00 AM 63.6761 -45.4029 278° West  Level Estimated
Sat 09:55:00 AM 63.6936 -45.6828 278° West  Level Estimated
Sat 09:56:00 AM 63.7106 -45.9631 278° West  Level Estimated
Sat 09:57:00 AM 63.7270 -46.2437 278° West  Level Estimated
Sat 09:58:00 AM 63.7429 -46.5246 277° West  Level Estimated
Sat 09:59:00 AM 63.7582 -46.8059 277° West  Level Estimated
Sat 10:00:00 AM 63.7730 -47.0874 277° West  Level Estimated
Sat 10:01:00 AM 63.7873 -47.3693 277° West  Level Estimated
Sat 10:02:00 AM 63.8009 -47.6514 276° West  Level Estimated
Sat 10:03:00 AM 63.8141 -47.9338 276° West  Level Estimated
Sat 10:04:00 AM 63.8267 -48.2164 276° West  Level Estimated
Sat 10:05:00 AM 63.8387 -48.4993 276° West  Level Estimated
Sat 10:06:00 AM 63.8502 -48.7824 275° West  Level Estimated
Sat 10:07:00 AM 63.8611 -49.0658 275° West  Level Estimated
Sat 10:08:00 AM 63.8715 -49.3493 275° West  Level Estimated
Sat 10:09:00 AM 63.8813 -49.6331 275° West  Level Estimated
Sat 10:10:00 AM 63.8905 -49.9171 274° West  Level Estimated
Sat 10:11:00 AM 63.8993 -50.2012 274° West  Level Estimated
Sat 10:12:00 AM 63.9074 -50.4855 274° West  Level Estimated
Sat 10:13:00 AM 63.9150 -50.7700 274° West  Level Estimated
Sat 10:14:00 AM 63.9220 -51.0546 273° West  Level Estimated
Sat 10:15:00 AM 63.9285 -51.3394 273° West  Level Estimated
Sat 10:16:00 AM 63.9344 -51.6243 273° West  Level Estimated
Sat 10:17:00 AM 63.9398 -51.9093 273° West  Level Estimated
Sat 10:18:00 AM 63.9445 -52.1944 272° West  Level Estimated
Sat 10:19:00 AM 63.9488 -52.4795 272° West  Level Estimated
Sat 10:20:00 AM 63.9524 -52.7648 272° West  Level Estimated
Sat 10:21:00 AM 63.9556 -53.0502 272° West  Level Estimated
Sat 10:22:00 AM 63.9581 -53.3356 271° West  Level Estimated
Sat 10:23:00 AM 63.9601 -53.6210 271° West  Level Estimated
Sat 10:24:00 AM 63.9615 -53.9065 271° West  Level Estimated
Sat 10:25:00 AM 63.9624 -54.1920 271° West  Level Estimated
Sat 10:26:00 AM 63.9627 -54.4775 270° West  Level Estimated
Sat 10:27:00 AM 63.9624 -54.7631 270° West  Level Estimated
Sat 10:28:00 AM 63.9616 -55.0485 270° West  Level Estimated
Sat 10:29:00 AM 63.9603 -55.3340 269° West  Level Estimated
Sat 10:30:00 AM 63.9581 -55.6453 269° West  Level Estimated
Sat 10:31:00 AM 63.9553 -55.9566 269° West  Level Estimated
Sat 10:32:00 AM 63.9518 -56.2677 269° West  Level Estimated
Sat 10:33:00 AM 63.9477 -56.5788 268° West  Level Estimated
Sat 10:34:00 AM 63.9430 -56.8809 268° West  Level Estimated
Sat 10:35:00 AM 63.9378 -57.1829 268° West  Level Estimated
Sat 10:36:00 AM 63.9318 -57.4847 268° West  Level Estimated
Sat 10:37:00 AM 63.9253 -57.7865 267° West  Level Estimated
Sat 10:38:00 AM 63.9181 -58.0881 267° West  Level Estimated
Sat 10:39:00 AM 63.9103 -58.3895 267° West  Level Estimated
Sat 10:40:00 AM 63.9019 -58.6907 266° West  Level Estimated
Sat 10:41:00 AM 63.8929 -58.9918 266° West  Level Estimated
Sat 10:42:00 AM 63.8832 -59.2927 266° West  Level Estimated
Sat 10:43:00 AM 63.8729 -59.5933 266° West  Level Estimated
Sat 10:44:00 AM 63.8620 -59.8937 265° West  Level Estimated
Sat 10:45:00 AM 63.8504 -60.1939 265° West  Level Estimated
Sat 10:46:00 AM 63.8383 -60.4939 265° West  Level Estimated
Sat 10:47:00 AM 63.8255 -60.7935 265° West  Level Estimated
Sat 10:48:00 AM 63.8121 -61.0929 264° West  Level Estimated
Sat 10:49:00 AM 63.7980 -61.3920 264° West  Level Estimated
Sat 10:50:00 AM 63.7834 -61.6908 264° West  Level Estimated
Sat 10:51:00 AM 63.7682 -61.9893 264° West  Level Estimated
Sat 10:52:00 AM 63.7523 -62.2874 263° West  Level Estimated
Sat 10:53:00 AM 63.7358 -62.5852 263° West  Level Estimated
Sat 10:54:00 AM 63.7187 -62.8827 263° West  Level Estimated
Sat 10:55:00 AM 63.7010 -63.1798 262° West  Level Estimated
Sat 10:56:00 AM 63.6826 -63.4765 262° West  Level Estimated
Sat 10:57:00 AM 63.6637 -63.7728 262° West  Level Estimated
Sat 10:58:00 AM 63.6442 -64.0687 262° West  Level Estimated
Sat 10:58:57 AM 66.4333 -70.2333 260° West 470 541 34,000  Level Edmonton Center
Sat 10:59:00 AM 63.6240 -64.3642 261° West  Level Estimated
Sat 10:59:57 AM 66.4000 -70.5167 254° West 470 541 34,000  Level Edmonton Center
Sat 11:00:00 AM 63.6032 -64.6593 261° West  Level Estimated
Sat 11:00:57 AM 66.3667 -70.8167 255° West 470 541 34,000  Level Edmonton Center
Sat 11:01:00 AM 63.5819 -64.9539 261° West  Level Estimated
Sat 11:01:57 AM 66.3333 -71.1667 257° West 480 552 34,000  Level Edmonton Center
Sat 11:02:00 AM 63.5599 -65.2481 261° West  Level Estimated
Sat 11:02:57 AM 66.2833 -71.4667 248° West 480 552 34,000  Level Edmonton Center
Sat 11:03:00 AM 63.5373 -65.5419 260° West  Level Estimated
Sat 11:03:57 AM 66.2500 -71.7500 254° West 470 541 34,000  Level Edmonton Center
Sat 11:04:00 AM 63.5142 -65.8351 260° West  Level Estimated
Sat 11:04:57 AM 66.2000 -72.0500 248° West 460 529 34,000  Level Edmonton Center
Sat 11:05:57 AM 66.1833 -72.3667 263° West 470 541 34,000  Level Edmonton Center
Sat 11:06:57 AM 66.1333 -72.7333 252° West 470 541 34,000  Level Edmonton Center
Sat 11:07:57 AM 66.0833 -73.0333 248° West 480 552 34,000  Level Edmonton Center
Sat 11:08:57 AM 66.0500 -73.3000 253° West 470 541 34,000  Level Edmonton Center
Sat 11:09:57 AM 66.0167 -73.6333 256° West 480 552 34,000  Level Edmonton Center
Sat 11:10:57 AM 65.9667 -73.9333 248° West 480 552 34,000  Level Edmonton Center
Sat 11:11:57 AM 65.9333 -74.2500 256° West 470 541 34,000  Level Edmonton Center
Sat 11:12:57 AM 65.8833 -74.5333 247° West 470 541 34,000  Level Edmonton Center
Sat 11:13:57 AM 65.8333 -74.8333 248° West 470 541 34,000  Level Edmonton Center
Sat 11:14:57 AM 65.8000 -75.1167 254° West 470 541 34,000 24 Level Edmonton Center
Sat 11:17:00 AM 65.6255 -75.6620 232° Southwest  Level FlightAware Approximate
Sat 11:24:00 AM 65.0153 -77.4694 232° Southwest  Level FlightAware Approximate
Sat 11:25:00 AM 64.9264 -77.7208 230° Southwest  Level FlightAware Approximate
Sat 11:26:00 AM 64.8371 -77.9706 230° Southwest  Level FlightAware Approximate
Sat 11:27:00 AM 64.7474 -78.2187 230° Southwest  Level FlightAware Approximate
Sat 11:28:00 AM 64.6572 -78.4651 230° Southwest  Level FlightAware Approximate
Sat 11:29:00 AM 64.5667 -78.7100 229° Southwest  Level FlightAware Approximate
Sat 11:30:00 AM 64.4757 -78.9532 229° Southwest  Level FlightAware Approximate
Sat 11:31:00 AM 64.3844 -79.1947 229° Southwest  Level FlightAware Approximate
Sat 11:32:00 AM 64.2926 -79.4347 229° Southwest  Level FlightAware Approximate
Sat 11:33:00 AM 64.2005 -79.6731 228° Southwest  Level FlightAware Approximate
Sat 11:34:00 AM 64.1079 -79.9099 228° Southwest  Level FlightAware Approximate
Sat 11:35:00 AM 64.0150 -80.1451 228° Southwest  Level FlightAware Approximate
Sat 11:36:00 AM 63.9217 -80.3788 228° Southwest  Level FlightAware Approximate
Sat 11:37:00 AM 63.8281 -80.6109 228° Southwest  Level FlightAware Approximate
Sat 11:38:00 AM 63.7340 -80.8414 227° Southwest  Level FlightAware Approximate
Sat 11:39:00 AM 63.6396 -81.0704 227° Southwest  Level FlightAware Approximate
Sat 11:40:00 AM 63.5449 -81.2980 227° Southwest  Level FlightAware Approximate
Sat 11:41:00 AM 63.4497 -81.5240 227° Southwest  Level FlightAware Approximate
Sat 11:42:00 AM 63.3543 -81.7485 227° Southwest  Level FlightAware Approximate
Sat 11:43:00 AM 63.2584 -81.9715 226° Southwest  Level FlightAware Approximate
Sat 11:44:00 AM 63.1623 -82.1930 226° Southwest  Level FlightAware Approximate
Sat 11:45:00 AM 63.0658 -82.4131 226° Southwest  Level FlightAware Approximate
Sat 11:46:00 AM 62.9689 -82.6317 226° Southwest  Level FlightAware Approximate
Sat 11:47:00 AM 62.8717 -82.8488 226° Southwest  Level FlightAware Approximate
Sat 11:48:00 AM 62.7742 -83.0646 225° Southwest  Level FlightAware Approximate
Sat 11:49:00 AM 62.6764 -83.2789 225° Southwest  Level FlightAware Approximate
Sat 11:50:00 AM 62.5819 -83.4995 227° Southwest  Level FlightAware Approximate
Sat 11:51:00 AM 62.4874 -83.7195 227° Southwest  Level FlightAware Approximate
Sat 11:52:00 AM 62.3927 -83.9382 227° Southwest  Level FlightAware Approximate
Sat 11:53:00 AM 62.2976 -84.1555 227° Southwest  Level FlightAware Approximate
Sat 11:54:00 AM 62.2021 -84.3714 227° Southwest  Level FlightAware Approximate
Sat 11:55:00 AM 62.1063 -84.5860 226° Southwest  Level FlightAware Approximate
Sat 11:56:00 AM 62.0107 -84.8002 226° Southwest  Level FlightAware Approximate
Sat 11:57:00 AM 61.9148 -85.0132 226° Southwest  Level FlightAware Approximate
Sat 11:58:00 AM 61.8186 -85.2248 226° Southwest  Level FlightAware Approximate
Sat 11:59:00 AM 61.7220 -85.4351 226° Southwest  Level FlightAware Approximate
Sat 12:00:00 PM 61.6251 -85.6441 226° Southwest  Level FlightAware Approximate
Sat 12:01:00 PM 61.5279 -85.8518 226° Southwest  Level FlightAware Approximate
Sat 12:02:00 PM 61.4304 -86.0582 225° Southwest  Level FlightAware Approximate
Sat 12:03:00 PM 61.3326 -86.2633 225° Southwest  Level FlightAware Approximate
Sat 12:04:00 PM 61.2345 -86.4671 225° Southwest  Level FlightAware Approximate
Sat 12:05:00 PM 61.1361 -86.6696 225° Southwest  Level FlightAware Approximate
Sat 12:06:00 PM 61.0373 -86.8709 225° Southwest  Level FlightAware Approximate
Sat 12:07:00 PM 60.9383 -87.0710 225° Southwest  Level FlightAware Approximate
Sat 12:08:00 PM 60.8390 -87.2697 224° Southwest  Level FlightAware Approximate
Sat 12:09:00 PM 60.7394 -87.4673 224° Southwest  Level FlightAware Approximate
Sat 12:10:00 PM 60.6395 -87.6636 224° Southwest  Level FlightAware Approximate
Sat 12:11:00 PM 60.5393 -87.8588 224° Southwest  Level FlightAware Approximate
Sat 12:12:00 PM 60.4389 -88.0527 224° Southwest  Level FlightAware Approximate
Sat 12:13:00 PM 60.3381 -88.2454 223° Southwest  Level FlightAware Approximate
Sat 12:14:00 PM 60.2371 -88.4369 223° Southwest  Level FlightAware Approximate
Sat 12:15:00 PM 60.1358 -88.6273 223° Southwest  Level FlightAware Approximate
Sat 12:16:00 PM 60.0342 -88.8165 223° Southwest  Level FlightAware Approximate
Sat 12:17:00 PM 59.9324 -89.0045 223° Southwest  Level FlightAware Approximate
Sat 12:18:00 PM 59.8303 -89.1914 223° Southwest  Level FlightAware Approximate
Sat 12:19:00 PM 59.7279 -89.3771 222° Southwest  Level FlightAware Approximate
Sat 12:20:00 PM 59.6253 -89.5617 222° Southwest  Level FlightAware Approximate
Sat 12:21:00 PM 59.5224 -89.7452 222° Southwest  Level FlightAware Approximate
Sat 12:22:00 PM 59.4192 -89.9275 222° Southwest  Level FlightAware Approximate
Sat 12:23:00 PM 59.3158 -90.1087 222° Southwest  Level FlightAware Approximate
Sat 12:24:00 PM 59.2122 -90.2889 222° Southwest  Level FlightAware Approximate
Sat 12:25:00 PM 59.1083 -90.4679 222° Southwest  Level FlightAware Approximate
Sat 12:26:00 PM 59.0042 -90.6459 221° Southwest  Level FlightAware Approximate
Sat 12:27:00 PM 58.8998 -90.8228 221° Southwest  Level FlightAware Approximate
Sat 12:28:00 PM 58.7952 -90.9986 221° Southwest  Level FlightAware Approximate
Sat 12:29:00 PM 58.6903 -91.1734 221° Southwest  Level FlightAware Approximate
Sat 12:30:00 PM 58.5852 -91.3471 221° Southwest  Level FlightAware Approximate
Sat 12:31:00 PM 58.4799 -91.5198 221° Southwest  Level FlightAware Approximate
Sat 12:32:00 PM 58.3743 -91.6914 220° Southwest  Level FlightAware Approximate
Sat 12:33:00 PM 58.2686 -91.8620 220° Southwest  Level FlightAware Approximate
Sat 12:34:00 PM 58.1625 -92.0316 220° Southwest  Level FlightAware Approximate
Sat 12:35:00 PM 58.0563 -92.2002 220° Southwest  Level FlightAware Approximate
Sat 12:36:00 PM 57.9498 -92.3678 220° Southwest  Level FlightAware Approximate
Sat 12:37:00 PM 57.8432 -92.5344 220° Southwest  Level FlightAware Approximate
Sat 12:38:00 PM 57.7363 -92.7000 220° Southwest  Level FlightAware Approximate
Sat 12:38:29 PM 58.4833 -92.9667 219° Southwest 530 610 36,000  Level Winnipeg Center
Sat 12:39:00 PM 57.6292 -92.8646 219° Southwest  Level FlightAware Approximate
Sat 12:39:29 PM 58.3500 -93.1000 208° Southwest 500 575 36,000  Level Winnipeg Center
Sat 12:40:00 PM 57.5219 -93.0283 219° Southwest  Level FlightAware Approximate
Sat 12:40:29 PM 58.2333 -93.2500 214° Southwest 490 564 36,000  Level Winnipeg Center
Sat 12:41:00 PM 57.4143 -93.1910 219° Southwest  Level FlightAware Approximate
Sat 12:41:29 PM 58.1333 -93.4167 221° Southwest 500 575 36,000  Level Winnipeg Center
Sat 12:42:00 PM 57.3066 -93.3527 219° Southwest  Level FlightAware Approximate
Sat 12:42:29 PM 58.0167 -93.5500 211° Southwest 490 564 36,000  Level Winnipeg Center
Sat 12:43:00 PM 57.1987 -93.5135 219° Southwest  Level FlightAware Approximate
Sat 12:43:29 PM 57.9000 -93.6500 204° Southwest 490 564 36,000  Level Winnipeg Center
Sat 12:44:29 PM 57.7667 -93.8333 216° Southwest 490 564 36,000  Level Winnipeg Center
Sat 12:45:29 PM 57.6500 -93.9667 211° Southwest 500 575 36,000  Level Winnipeg Center
Sat 12:46:29 PM 57.5500 -94.1000 216° Southwest 500 575 36,000  Level Winnipeg Center
Sat 12:47:29 PM 57.4333 -94.2333 212° Southwest 500 575 36,000  Level Winnipeg Center
Sat 12:48:29 PM 57.3167 -94.3667 212° Southwest 490 564 36,000  Level Winnipeg Center
Sat 12:49:29 PM 57.2000 -94.4833 208° Southwest 490 564 36,000  Level Winnipeg Center
Sat 12:50:29 PM 57.0667 -94.6167 209° Southwest 490 564 36,000  Level Winnipeg Center
Sat 12:51:29 PM 56.9500 -94.7500 212° Southwest 490 564 36,000  Level Winnipeg Center
Sat 12:52:29 PM 56.8333 -94.8833 212° Southwest 490 564 36,000  Level Winnipeg Center
Sat 12:53:29 PM 56.7167 -95.0167 212° Southwest 500 575 36,000  Level Winnipeg Center
Sat 12:54:29 PM 56.6167 -95.1333 213° Southwest 500 575 36,000  Level Winnipeg Center
Sat 12:55:29 PM 56.4833 -95.3000 215° Southwest 500 575 36,000  Level Winnipeg Center
Sat 12:56:29 PM 56.3667 -95.4167 209° Southwest 500 575 36,000  Level Winnipeg Center
Sat 12:57:29 PM 56.2500 -95.5500 212° Southwest 500 575 36,000  Level Winnipeg Center
Sat 12:58:29 PM 56.1333 -95.6667 209° Southwest 500 575 36,000  Level Winnipeg Center
Sat 12:59:29 PM 56.0167 -95.8000 213° Southwest 500 575 36,000  Level Winnipeg Center
Sat 01:00:29 PM 55.8833 -95.9167 206° Southwest 500 575 36,000  Level Winnipeg Center
Sat 01:01:29 PM 55.7667 -96.0333 209° Southwest 500 575 36,000  Level Winnipeg Center
Sat 01:02:29 PM 55.6333 -96.1833 212° Southwest 500 575 36,000  Level Winnipeg Center
Sat 01:03:29 PM 55.5167 -96.3167 213° Southwest 500 575 36,000  Level Winnipeg Center
Sat 01:04:29 PM 55.4000 -96.4333 210° Southwest 500 575 36,000  Level Winnipeg Center
Sat 01:05:29 PM 55.2833 -96.5500 210° Southwest 500 575 36,000  Level Winnipeg Center
Sat 01:06:29 PM 55.1667 -96.6667 210° Southwest 500 575 36,000  Level Winnipeg Center
Sat 01:07:29 PM 55.0333 -96.7833 207° Southwest 500 575 36,000  Level Winnipeg Center
Sat 01:08:29 PM 54.9167 -96.9000 210° Southwest 500 575 36,000  Level Winnipeg Center
Sat 01:09:29 PM 54.7833 -97.0167 207° Southwest 500 575 36,000  Level Winnipeg Center
Sat 01:10:29 PM 54.6667 -97.1333 210° Southwest 500 575 36,000  Level Winnipeg Center
Sat 01:11:29 PM 54.5500 -97.2833 217° Southwest 500 575 36,000  Level Winnipeg Center
Sat 01:12:29 PM 54.4333 -97.4000 210° Southwest 500 575 36,000  Level Winnipeg Center
Sat 01:13:29 PM 54.3167 -97.5000 207° Southwest 500 575 36,000  Level Winnipeg Center
Sat 01:14:29 PM 54.1833 -97.6167 207° Southwest 500 575 36,000  Level Winnipeg Center
Sat 01:15:29 PM 54.0667 -97.7333 210° Southwest 500 575 36,000  Level Winnipeg Center
Sat 01:16:29 PM 53.9500 -97.8500 210° Southwest 490 564 36,000  Level Winnipeg Center
Sat 01:17:29 PM 53.8167 -97.9500 204° Southwest 490 564 36,000  Level Winnipeg Center
Sat 01:18:29 PM 53.6833 -98.0667 207° Southwest 490 564 36,000  Level Winnipeg Center
Sat 01:19:29 PM 53.5667 -98.1500 203° Southwest 490 564 36,000  Level Winnipeg Center
Sat 01:20:29 PM 53.4333 -98.2500 204° Southwest 490 564 36,000  Level Winnipeg Center
Sat 01:21:29 PM 53.3167 -98.3667 211° Southwest 490 564 36,000  Level Winnipeg Center
Sat 01:22:29 PM 53.2000 -98.4500 203° Southwest 490 564 36,000  Level Winnipeg Center
Sat 01:23:29 PM 53.0833 -98.5500 207° Southwest 500 575 36,000  Level Winnipeg Center
Sat 01:24:29 PM 52.9500 -98.6667 208° Southwest 490 564 36,000  Level Winnipeg Center
Sat 01:25:29 PM 52.8333 -98.7333 199° South 490 564 36,000  Level Winnipeg Center
Sat 01:26:29 PM 52.7167 -98.8500 211° Southwest 490 564 36,000  Level Winnipeg Center
Sat 01:27:29 PM 52.5667 -98.9500 202° Southwest 490 564 36,000  Level Winnipeg Center
Sat 01:28:29 PM 52.4500 -99.0167 199° South 500 575 36,000  Level Winnipeg Center
Sat 01:29:29 PM 52.3333 -99.1333 211° Southwest 500 575 36,000  Level Winnipeg Center
Sat 01:30:29 PM 52.2000 -99.2333 205° Southwest 500 575 36,000  Level Winnipeg Center
Sat 01:31:29 PM 52.0833 -99.3333 208° Southwest 500 575 36,000  Level Winnipeg Center
Sat 01:32:29 PM 51.9500 -99.4167 201° Southwest 500 575 36,000  Level Winnipeg Center
Sat 01:33:29 PM 51.8333 -99.5167 208° Southwest 500 575 36,000  Level Winnipeg Center
Sat 01:34:29 PM 51.6833 -99.6167 202° Southwest 500 575 36,000  Level Winnipeg Center
Sat 01:35:29 PM 51.5667 -99.7167 208° Southwest 500 575 36,000  Level Winnipeg Center
Sat 01:36:29 PM 51.4333 -99.8167 205° Southwest 500 575 36,000  Level Winnipeg Center
Sat 01:37:29 PM 51.3167 -99.8833 200° South 500 575 36,000  Level Winnipeg Center
Sat 01:38:29 PM 51.1833 -99.9833 205° Southwest 500 575 36,000  Level Winnipeg Center
Sat 01:39:29 PM 51.0667 -100.0833 208° Southwest 500 575 36,000  Level Winnipeg Center
Sat 01:40:29 PM 50.9167 -100.1833 203° Southwest 500 575 36,000  Level Winnipeg Center
Sat 01:41:29 PM 50.8000 -100.2500 200° South 500 575 36,000  Level Winnipeg Center
Sat 01:42:29 PM 50.6667 -100.3500 205° Southwest 500 575 36,000  Level Winnipeg Center
Sat 01:43:29 PM 50.5500 -100.4500 209° Southwest 500 575 36,000  Level Winnipeg Center
Sat 01:44:29 PM 50.4167 -100.5167 198° South 500 575 36,000  Level Winnipeg Center
Sat 01:45:29 PM 50.2833 -100.6000 202° Southwest 500 575 36,000  Level Winnipeg Center
Sat 01:46:29 PM 50.1667 -100.7000 209° Southwest 500 575 36,000  Level Winnipeg Center
Sat 01:47:29 PM 50.0333 -100.7667 198° South 500 575 36,000  Level Winnipeg Center
Sat 01:48:29 PM 49.9167 -100.8667 209° Southwest 500 575 36,000  Level Winnipeg Center
Sat 01:49:29 PM 49.7833 -100.9500 202° Southwest 500 575 36,000  Level Winnipeg Center
Sat 01:50:29 PM 49.6500 -101.0167 198° South 500 575 36,000  Level Winnipeg Center
Sat 01:51:29 PM 49.5167 -101.1167 206° Southwest 500 575 36,000  Level Winnipeg Center
Sat 01:52:29 PM 49.4000 -101.2000 205° Southwest 500 575 36,000  Level Winnipeg Center
Sat 01:53:29 PM 49.2667 -101.3000 206° Southwest 500 575 36,000  Level Winnipeg Center
Sat 01:54:29 PM 49.1500 -101.3667 200° South 480 552 36,000  Level Winnipeg Center
Sat 01:55:29 PM 49.0000 -101.4500 200° South 510 587 36,000  Level Winnipeg Center
Sat 01:56:29 PM 48.8667 -101.5500 206° Southwest 510 587 36,000  Level Winnipeg Center
Sat 01:57:21 PM 48.7903 -101.5956 201° Southwest 505 581 36,000  Level Minneapolis Center
Sat 01:58:22 PM 48.6608 -101.6783 203° Southwest 505 581 36,000  Level Minneapolis Center
Sat 01:59:24 PM 48.5297 -101.7597 202° Southwest 506 582 36,000  Level Minneapolis Center
Sat 02:00:26 PM 48.3997 -101.8431 203° Southwest 506 582 36,000  Level Minneapolis Center
Sat 02:01:27 PM 48.2608 -101.9797 213° Southwest 505 581 36,000  Level Minneapolis Center
Sat 02:02:29 PM 48.1569 -102.1122 220° Southwest 494 568 36,000  Level Minneapolis Center
Sat 02:03:31 PM 48.0528 -102.2428 220° Southwest 494 568 36,000  Level Minneapolis Center
Sat 02:04:32 PM 47.9453 -102.3719 219° Southwest 493 567 36,000  Level Minneapolis Center
Sat 02:05:34 PM 47.8403 -102.5019 220° Southwest 493 567 36,000  Level Minneapolis Center
Sat 02:06:35 PM 47.7333 -102.6317 219° Southwest 493 567 36,000  Level Minneapolis Center
Sat 02:07:37 PM 47.6267 -102.7611 219° Southwest 493 567 36,000  Level Minneapolis Center
Sat 02:08:39 PM 47.5194 -102.8886 219° Southwest 493 567 36,000  Level Minneapolis Center
Sat 02:09:40 PM 47.3894 -103.0419 219° Southwest 493 567 36,000  Level Minneapolis Center
Sat 02:10:42 PM 47.2817 -103.1689 219° Southwest 494 568 36,000  Level Minneapolis Center
Sat 02:11:44 PM 47.1742 -103.2964 219° Southwest 494 568 36,000  Level Minneapolis Center
Sat 02:12:45 PM 47.0667 -103.4200 218° Southwest 494 568 36,000  Level Minneapolis Center
Sat 02:13:47 PM 46.9594 -103.5439 218° Southwest 493 567 36,000  Level Minneapolis Center
Sat 02:14:49 PM 46.8511 -103.6664 218° Southwest 493 567 36,000  Level Minneapolis Center
Sat 02:15:50 PM 46.7439 -103.7894 218° Southwest 493 567 36,000  Level Minneapolis Center
Sat 02:16:52 PM 46.6358 -103.9114 218° Southwest 492 566 36,000  Level Minneapolis Center
Sat 02:17:54 PM 46.5283 -104.0325 218° Southwest 492 566 36,000  Level Minneapolis Center
Sat 02:18:55 PM 46.3992 -104.1781 218° Southwest 492 566 36,000  Level Minneapolis Center
Sat 02:19:57 PM 46.2919 -104.2964 217° Southwest 490 564 36,000  Level Minneapolis Center
Sat 02:20:58 PM 46.1856 -104.4164 218° Southwest 489 563 36,000  Level Minneapolis Center
Sat 02:22:00 PM 46.0767 -104.5331 217° Southwest 489 563 36,000  Level Minneapolis Center
Sat 02:23:17 PM 45.9314 -104.6878 217° Southwest 487 560 36,000  Level Salt Lake Center
Sat 02:24:19 PM 45.8258 -104.8067 218° Southwest 485 558 36,000  Level Salt Lake Center
Sat 02:25:21 PM 45.7181 -104.9247 217° Southwest 488 562 36,000  Level Salt Lake Center
Sat 02:26:22 PM 45.6094 -105.0400 217° Southwest 488 562 36,000  Level Salt Lake Center
Sat 02:27:24 PM 45.5019 -105.1586 218° Southwest 488 562 36,000  Level Salt Lake Center
Sat 02:28:26 PM 45.3733 -105.2964 217° Southwest 484 557 36,000  Level Salt Lake Center
Sat 02:29:28 PM 45.2642 -105.4097 216° Southwest 483 556 36,000  Level Salt Lake Center
Sat 02:30:30 PM 45.1567 -105.5250 217° Southwest 486 559 36,000  Level Salt Lake Center
Sat 02:31:32 PM 45.0478 -105.6381 216° Southwest 486 559 36,000  Level Salt Lake Center
Sat 02:32:34 PM 44.9400 -105.7528 217° Southwest 485 558 36,000  Level Salt Lake Center
Sat 02:33:36 PM 44.8303 -105.8678 217° Southwest 488 562 36,000  Level Salt Lake Center
Sat 02:34:38 PM 44.7100 -105.9928 216° Southwest 490 564 36,000  Level Salt Lake Center
Sat 02:35:43 PM 44.6119 -106.0933 216° Southwest 487 560 36,000  Level Denver Center
Sat 02:36:42 PM 44.4797 -106.2281 216° Southwest 488 562 36,000  Level Salt Lake Center
Sat 02:37:43 PM 44.3711 -106.3392 216° Southwest 482 555 36,000  Level Salt Lake Center
Sat 02:37:56 PM 44.3486 -106.3619 216° Southwest 484 557 36,000  Level Salt Lake Center
Sat 02:38:51 PM 44.2586 -106.4539 216° Southwest 490 564 36,000  Level Denver Center
Sat 02:39:51 PM 44.1558 -106.5778 221° Southwest 491 565 36,000  Level Denver Center
Sat 02:40:56 PM 44.0469 -106.7236 224° Southwest 491 565 36,000  Level Denver Center
Sat 02:41:57 PM 43.9389 -106.8700 224° Southwest 489 563 36,000  Level Denver Center
Sat 02:42:58 PM 43.8425 -106.9992 224° Southwest 488 562 36,000  Level Denver Center
Sat 02:44:02 PM 43.7375 -107.1419 225° Southwest 488 562 36,000  Level Denver Center
Sat 02:45:02 PM 43.6669 -107.2344 223° Southwest 488 562 36,000  Level Denver Center
Sat 02:46:06 PM 43.5489 -107.3914 224° Southwest 488 562 36,000  Level Denver Center
Sat 02:47:06 PM 43.4306 -107.5481 224° Southwest 490 564 36,000  Level Denver Center
Sat 02:48:10 PM 43.3317 -107.6775 224° Southwest 490 564 36,000  Level Denver Center
Sat 02:49:16 PM 43.2325 -107.8097 224° Southwest 492 566 36,000  Level Salt Lake Center
Sat 02:50:18 PM 43.1317 -107.9389 223° Southwest 497 572 36,000  Level Salt Lake Center
Sat 02:51:20 PM 43.0114 -108.0956 224° Southwest 498 573 36,000  Level Salt Lake Center
Sat 02:52:21 PM 42.9178 -108.2169 224° Southwest 501 577 36,000  Level Salt Lake Center
Sat 02:53:23 PM 42.8033 -108.3628 223° Southwest 504 580 36,000  Level Salt Lake Center
Sat 02:59:38 PM 42.1540 -109.1782 223° Southwest 517 595 36,000  Level FlightAware ADS-B
Sat 03:02:29 PM 41.8522 -109.5516 222° Southwest 529 609 36,000  Level FlightAware ADS-B
Sat 03:03:51 PM 41.6989 -109.7377 222° Southwest 534 615 36,000  Level FlightAware ADS-B
Sat 03:05:45 PM 41.4884 -109.9917 222° Southwest 541 623 36,000  Level FlightAware ADS-B
Sat 03:07:01 PM 41.3594 -110.1462 222° Southwest 544 626 36,000  Level FlightAware ADS-B
Sat 03:08:12 PM 41.2159 -110.3183 222° Southwest 545 627 36,000  Level FlightAware ADS-B
Sat 03:09:22 PM 41.0831 -110.4761 222° Southwest 543 625 36,000  Level FlightAware ADS-B
Sat 03:10:13 PM 40.9954 -110.5780 222° Southwest 544 626 36,000  Level FlightAware ADS-B
Sat 03:11:27 PM 40.8663 -110.7301 222° Southwest 543 625 36,000  Level FlightAware ADS-B
Sat 03:12:28 PM 40.7348 -110.8840 222° Southwest 544 626 36,000  Level FlightAware ADS-B
Sat 03:12:59 PM 40.6808 -110.9476 222° Southwest 545 627 36,000  Level FlightAware ADS-B
Sat 03:13:31 PM 40.6153 -111.0223 222° Southwest 546 628 36,000  Level FlightAware ADS-B
Sat 03:13:37 PM 40.6038 -111.0353 221° Southwest 546 628 36,000  Level FlightAware ADS-B
Sat 03:13:55 PM 40.5683 -111.0771 221° Southwest 546 628 36,000  Level FlightAware ADS-B
Sat 03:14:18 PM 40.5266 -111.1254 221° Southwest 547 629 36,000  Level FlightAware ADS-B
Sat 03:14:32 PM 40.5266 -111.1254 221° Southwest 548 631 36,000  Level FlightAware ADS-B
Sat 03:15:02 PM 40.4456 -111.2196 221° Southwest 548 631 36,000  Level FlightAware ADS-B
Sat 03:15:32 PM 40.3987 -111.2723 221° Southwest 547 629 36,000  Level FlightAware ADS-B
Sat 03:16:02 PM 40.3289 -111.3532 221° Southwest 548 631 36,000  Level FlightAware ADS-B
Sat 03:16:15 PM 40.3083 -111.3771 221° Southwest 548 631 36,000  Level FlightAware ADS-B
Sat 03:17:00 PM 40.2161 -111.4819 222° Southwest 543 625 36,000  Level FlightAware ADS-B
Sat 03:17:46 PM 40.1337 -111.5756 221° Southwest 549 632 36,000  Level FlightAware ADS-B
Sat 03:18:18 PM 40.0984 -111.6148 221° Southwest 549 632 36,000  Level FlightAware ADS-B
Sat 03:18:53 PM 39.9990 -111.7278 221° Southwest 550 633 36,000  Level FlightAware ADS-B
Sat 03:19:29 PM 39.9310 -111.8040 221° Southwest 551 634 36,000  Level FlightAware ADS-B
Sat 03:19:59 PM 39.8731 -111.8691 221° Southwest 552 635 36,000  Level FlightAware ADS-B
Sat 03:20:33 PM 39.8063 -111.9451 221° Southwest 552 635 36,000  Level FlightAware ADS-B
Sat 03:21:18 PM 39.7194 -112.0424 221° Southwest 552 635 36,000  Level FlightAware ADS-B
Sat 03:21:49 PM 39.6607 -112.1074 221° Southwest 552 635 36,000  Level FlightAware ADS-B
Sat 03:22:19 PM 39.6010 -112.1743 221° Southwest 552 635 36,000  Level FlightAware ADS-B
Sat 03:22:50 PM 39.5437 -112.2397 225° Southwest 545 627 36,000  Level FlightAware ADS-B
Sat 03:23:00 PM 39.5267 -112.2639 233° Southwest 526 605 36,000  Level FlightAware ADS-B
Sat 03:23:20 PM 39.5033 -112.3165 246° West 502 578 36,000  Level FlightAware ADS-B
Sat 03:23:40 PM 39.4892 -112.3721 257° West 479 551 36,000  Level FlightAware ADS-B
Sat 03:24:21 PM 39.4655 -112.4861 251° West 491 565 36,000  Level FlightAware ADS-B
Sat 03:25:01 PM 39.4354 -112.5972 251° West 491 565 36,000  Level FlightAware ADS-B
Sat 03:25:32 PM 39.4138 -112.6832 252° West 487 560 36,000  Level FlightAware ADS-B
Sat 03:25:42 PM 39.4065 -112.7108 253° West 486 559 36,000  Level FlightAware ADS-B (KBTF)
Sat 03:26:02 PM 39.3923 -112.7661 253° West 485 558 36,000  Level FlightAware ADS-B (KBTF)
Sat 03:26:23 PM 39.3780 -112.8241 252° West 487 560 36,000  Level FlightAware ADS-B
Sat 03:26:53 PM 39.3562 -112.9067 252° West 487 560 36,000  Level FlightAware ADS-B
Sat 03:27:03 PM 39.3485 -112.9370 251° West 488 562 36,000  Level FlightAware ADS-B
Sat 03:27:34 PM 39.3260 -113.0226 252° West 485 558 36,000  Level FlightAware ADS-B
Sat 03:28:09 PM 39.3011 -113.1160 251° West 488 562 36,000  Level FlightAware ADS-B
Sat 03:28:42 PM 39.2767 -113.2093 252° West 483 556 36,000  Level FlightAware ADS-B (KBTF)
Sat 03:29:03 PM 39.2621 -113.2641 251° West 486 559 36,000  Level FlightAware ADS-B
Sat 03:29:14 PM 39.2532 -113.2971 252° West 482 555 36,000  Level FlightAware ADS-B
Sat 03:29:29 PM 39.2424 -113.3381 252° West 482 555 36,000  Level FlightAware ADS-B
Sat 03:30:02 PM 39.2187 -113.4283 252° West 482 555 36,000  Level FlightAware ADS-B (KBTF)
Sat 03:30:34 PM 39.1955 -113.5153 251° West 483 556 36,000  Level FlightAware ADS-B
Sat 03:31:04 PM 39.1743 -113.5944 251° West 482 555 36,000  Level FlightAware ADS-B
Sat 03:31:35 PM 39.1516 -113.6782 251° West 480 552 36,000  Level FlightAware ADS-B
Sat 03:32:14 PM 39.1239 -113.7833 251° West 478 550 36,000  Level FlightAware ADS-B
Sat 03:32:47 PM 39.0992 -113.8748 251° West 477 549 36,000  Level FlightAware ADS-B
Sat 03:33:38 PM 39.0631 -114.0084 251° West 475 547 36,000  Level FlightAware ADS-B
Sat 03:34:55 PM 39.0081 -114.2080 251° West 475 547 36,000  Level FlightAware ADS-B
Sat 03:36:15 PM 38.9539 -114.4071 251° West 474 545 36,000  Level FlightAware ADS-B
Sat 03:37:32 PM 38.8978 -114.6100 251° West 474 545 36,000  Level Salt Lake Center
Sat 03:38:33 PM 38.8544 -114.7675 251° West 472 543 36,000  Level Salt Lake Center
Sat 03:39:35 PM 38.8097 -114.9261 250° West 473 544 36,000  Level Salt Lake Center
Sat 03:40:36 PM 38.7647 -115.0847 250° West 474 545 36,000  Level Salt Lake Center
Sat 03:41:38 PM 38.7094 -115.2758 250° West 478 550 36,000  Level Salt Lake Center
Sat 03:42:39 PM 38.6694 -115.4164 250° West 471 542 36,000  Level Salt Lake Center
Sat 03:43:41 PM 38.6250 -115.5722 250° West 468 539 36,000  Level Salt Lake Center
Sat 03:44:42 PM 38.5800 -115.7269 250° West 466 536 36,000  Level Salt Lake Center
Sat 03:45:44 PM 38.5350 -115.8828 250° West 466 536 36,000  Level Salt Lake Center
Sat 03:46:45 PM 38.4803 -116.0697 250° West 468 539 36,000  Level Salt Lake Center
Sat 03:47:47 PM 38.4347 -116.2247 249° West 468 539 36,000  Level Salt Lake Center
Sat 03:48:48 PM 38.3886 -116.3792 249° West 466 536 36,000  Level Salt Lake Center
Sat 03:49:28 PM 38.3611 -116.4719 249° West 467 537 36,000  Level Oakland Center
Sat 03:50:30 PM 38.3158 -116.6244 249° West 463 533 36,000  Level Oakland Center
Sat 03:51:31 PM 38.2692 -116.7775 249° West 463 533 36,000  Level Oakland Center
Sat 03:52:32 PM 38.2233 -116.9308 249° West 463 533 36,000  Level Oakland Center
Sat 03:53:34 PM 38.1731 -117.0981 249° West 464 534 36,000  Level Oakland Center
Sat 03:54:35 PM 38.1253 -117.2522 249° West 466 536 36,000  Level Oakland Center
Sat 03:55:36 PM 38.0883 -117.4061 253° West 460 529 36,000  Level Oakland Center
Sat 03:56:38 PM 38.0536 -117.5586 254° West 452 520 36,000  Level Oakland Center
Sat 04:00:23 PM 37.9661 -118.1192 262° West 443 510 36,000  Level FlightAware ADS-B (KSAC)
Sat 04:02:05 PM 37.9364 -118.3976 262° West 445 512 36,000  Level FlightAware ADS-B (KSAC)
Sat 04:04:05 PM 37.9039 -118.6916 262° West 445 512 36,000  Level FlightAware ADS-B (KSAC)
Sat 04:04:44 PM 37.8896 -118.8178 261° West 444 511 36,000  Level FlightAware ADS-B (KSAC)
Sat 04:05:25 PM 37.8781 -118.9203 261° West 443 510 36,000  Level FlightAware ADS-B (KSAC)
Sat 04:05:45 PM 37.8725 -118.9692 261° West 444 511 36,000  Level FlightAware ADS-B (KSAC)
Sat 04:06:19 PM 37.8595 -119.0822 262° West 444 511 36,000  Level FlightAware ADS-B
Sat 04:06:24 PM 37.8611 -119.0693 261° West 443 510 36,000  Level FlightAware ADS-B (KSAC)
Sat 04:07:01 PM 37.8470 -119.1900 262° West 444 511 36,000  Level FlightAware ADS-B
Sat 04:07:44 PM 37.8378 -119.2669 261° West 444 511 36,000  Level FlightAware ADS-B (KSAC)
Sat 04:08:24 PM 37.8261 -119.3672 261° West 444 511 36,000  Level FlightAware ADS-B (KSAC)
Sat 04:09:06 PM 37.8132 -119.4773 261° West 443 510 36,000 -75 Level FlightAware ADS-B (KSAC)
Sat 04:09:44 PM 37.8017 -119.5720 261° West 443 510 35,900 -532 Descending FlightAware ADS-B (KSAC)
Sat 04:10:25 PM 37.7887 -119.6806 261° West 450 518 35,300 -963 Descending FlightAware ADS-B (KSAC)
Sat 04:11:05 PM 37.7761 -119.7842 261° West 447 514 34,600 -975 Descending FlightAware ADS-B (KSAC)
Sat 04:11:45 PM 37.7640 -119.8844 261° West 442 509 34,000 -970 Descending FlightAware ADS-B (KSAC)
Sat 04:12:44 PM 37.7453 -120.0358 261° West 432 497 33,000 -1,000 Descending FlightAware ADS-B (KSAC)
Sat 04:13:45 PM 37.7235 -120.1860 253° West 434 499 32,000 -1,010 Descending FlightAware ADS-B (KSAC)
Sat 04:14:25 PM 37.6983 -120.2852 252° West 434 499 31,300 -1,425 Descending FlightAware ADS-B (KSAC)
Sat 04:15:05 PM 37.6783 -120.3839 259° West 420 483 30,100 -2,000 Descending FlightAware ADS-B (KSAC)
Sat 04:15:46 PM 37.6674 -120.4798 263° West 411 473 28,600 -2,175 Descending FlightAware ADS-B (KSAC)
Sat 04:16:25 PM 37.6578 -120.5700 262° West 408 470 27,200 -2,325 Descending FlightAware ADS-B (KSAC)
Sat 04:17:06 PM 37.6476 -120.6683 262° West 406 467 25,500 -2,400 Descending FlightAware ADS-B (KSAC)
Sat 04:18:05 PM 37.6337 -120.8088 263° West 400 460 23,200 -2,449 Descending FlightAware ADS-B (KSAC)
Sat 04:18:44 PM 37.6246 -120.9026 263° West 401 461 21,500 -2,519 Descending FlightAware ADS-B (KSAC)
Sat 04:19:26 PM 37.6151 -120.9994 262° West 398 458 19,800 -2,914 Descending FlightAware ADS-B (KSAC)
Sat 04:19:54 PM 37.6063 -121.0850 263° West 398 458 18,100 -2,684 Descending FlightAware ADS-B
Sat 04:20:04 PM 37.6062 -121.0869 262° West 398 458 18,100 -2,400 Level FlightAware ADS-B (KSAC)
Sat 04:20:24 PM 37.5994 -121.1540 263° West 396 456 16,900 -2,049 Descending FlightAware ADS-B
Sat 04:20:45 PM 37.5969 -121.1788 262° West 397 457 16,700 -2,710 Descending FlightAware ADS-B (KSAC)
Sat 04:20:55 PM 37.5920 -121.2270 263° West 395 455 15,500 -3,512 Descending FlightAware ADS-B
Sat 04:21:26 PM 37.5850 -121.2980 262° West 393 452 14,300 -2,557 Descending FlightAware ADS-B
Sat 04:21:56 PM 37.5778 -121.3660 263° West 391 450 12,900 -1,579 Descending FlightAware ADS-B
Sat 04:22:04 PM 37.5779 -121.3634 262° West 391 450 13,300 -2,323 Climbing FlightAware ADS-B (KSAC)
Sat 04:22:27 PM 37.5706 -121.4350 263° West 385 443 11,700 -2,717 Descending FlightAware ADS-B
Sat 04:22:57 PM 37.5636 -121.5020 263° West 382 440 10,900 -1,227 Descending FlightAware ADS-B
Sat 04:23:11 PM 37.5601 -121.5320 260° West 367 422 10,800 -194 Descending FlightAware ADS-B
Sat 04:23:28 PM 37.5532 -121.5659 254° West 347 399 10,800  Level FlightAware ADS-B (EPLL / LCJ)
Sat 04:23:43 PM 37.5469 -121.5920 254° West 331 381 10,800 439 Level FlightAware ADS-B
Sat 04:24:09 PM 37.5415 -121.6174 254° West 312 359 11,100 -387 Climbing FlightAware ADS-B (KSAC)
Sat 04:24:14 PM 37.5348 -121.6480 255° West 300 345 10,600 -1,667 Descending FlightAware ADS-B
Sat 04:24:45 PM 37.5243 -121.7000 256° West 290 334 10,100 -1,021 Descending FlightAware ADS-B
Sat 04:25:01 PM 37.5195 -121.7240 257° West 289 333 9,800 -1,263 Descending FlightAware ADS-B
Sat 04:25:04 PM 37.5193 -121.7259 257° West 289 333 9,700 -1,200 Descending FlightAware ADS-B (EPLL / LCJ)
Sat 04:25:16 PM 37.5147 -121.7510 257° West 290 334 9,500 -857 Descending FlightAware ADS-B
Sat 04:25:32 PM 37.5099 -121.7750 257° West 291 335 9,300 -818 Descending FlightAware ADS-B
Sat 04:25:38 PM 37.5082 -121.7851 257° West 290 334 9,200 -1,200 Descending FlightAware ADS-B (EPLL / LCJ)
Sat 04:25:47 PM 37.5052 -121.8020 257° West 289 333 9,000 -1,600 Descending FlightAware ADS-B
Sat 04:25:53 PM 37.5036 -121.8096 257° West 288 331 8,800 -1,125 Descending FlightAware ADS-B (EPLL / LCJ)
Sat 04:26:03 PM 37.5002 -121.8280 257° West 287 330 8,700 -923 Descending FlightAware ADS-B
Sat 04:26:19 PM 37.4955 -121.8520 257° West 284 327 8,400 -1,200 Descending FlightAware ADS-B
Sat 04:26:28 PM 37.4935 -121.8670 264° West 285 328 8,200 -923 Descending FlightAware ADS-B
Sat 04:26:32 PM 37.4933 -121.8730 269° West 285 328 8,200 -667 Level FlightAware ADS-B
Sat 04:26:37 PM 37.4935 -121.8830 273° West 285 328 8,100 -1,200 Descending FlightAware ADS-B
Sat 04:26:52 PM 37.4955 -121.9080 276° West 284 327 7,800 -1,286 Descending FlightAware ADS-B
Sat 04:27:05 PM 37.4974 -121.9290 276° West 278 320 7,500 -1,333 Descending FlightAware ADS-B
Sat 04:27:10 PM 37.4978 -121.9353 276° West 276 318 7,400 -1,125 Descending FlightAware ADS-B (EPLL / LCJ)
Sat 04:27:21 PM 37.4992 -121.9530 275° West 272 313 7,200 -1,091 Descending FlightAware ADS-B
Sat 04:27:32 PM 37.5001 -121.9639 276° West 264 304 7,000 -1,200 Descending FlightAware ADS-B (EPLL / LCJ)
Sat 04:27:36 PM 37.5013 -121.9780 279° West 261 300 6,900 -2,000 Descending FlightAware ADS-B
Sat 04:27:41 PM 37.5026 -121.9850 283° West 259 298 6,700 -1,565 Descending FlightAware ADS-B
Sat 04:27:59 PM 37.5080 -122.0110 285° West 249 287 6,300 -1,333 Descending FlightAware ADS-B
Sat 04:28:08 PM 37.5104 -122.0217 285° West 243 280 6,100 -1,600 Descending FlightAware ADS-B (EPLL / LCJ)
Sat 04:28:14 PM 37.5125 -122.0310 285° West 239 275 5,900 -1,765 Descending FlightAware ADS-B
Sat 04:28:25 PM 37.5159 -122.0460 287° West 232 267 5,600 -1,714 Descending FlightAware ADS-B
Sat 04:28:28 PM 37.5166 -122.0481 287° West 230 265 5,500 -1,636 Descending FlightAware ADS-B (EPLL / LCJ)
Sat 04:28:36 PM 37.5191 -122.0580 288° West 227 261 5,300 -1,667 Descending FlightAware ADS-B
Sat 04:28:46 PM 37.5226 -122.0718 289° West 218 251 5,000 -1,600 Descending FlightAware ADS-B (EPLL / LCJ)
Sat 04:28:51 PM 37.5241 -122.0770 289° West 216 249 4,900 -600 Descending FlightAware ADS-B
Sat 04:29:06 PM 37.5289 -122.0950 289° West 201 231 4,800 -333 Descending FlightAware ADS-B
Sat 04:29:09 PM 37.5295 -122.0972 288° West 199 229 4,800  Level FlightAware ADS-B (EPLL / LCJ)
Sat 04:29:15 PM 37.5316 -122.1050 289° West 194 223 4,800 -500 Level FlightAware ADS-B
Sat 04:29:21 PM 37.5334 -122.1110 290° West 192 221 4,700 -1,286 Descending FlightAware ADS-B
Sat 04:29:29 PM 37.5359 -122.1195 291° West 193 222 4,500 -1,500 Descending FlightAware ADS-B (EPLL / LCJ)
Sat 04:29:33 PM 37.5371 -122.1230 292° West 191 220 4,400 -1,500 Descending FlightAware ADS-B
Sat 04:29:45 PM 37.5409 -122.1350 292° West 185 213 4,100 -1,500 Descending FlightAware ADS-B
Sat 04:29:49 PM 37.5422 -122.1389 291° West 183 211 4,000 -1,500 Descending FlightAware ADS-B (EPLL / LCJ)
Sat 04:29:53 PM 37.5435 -122.1440 290° West 182 209 3,900 -1,636 Descending FlightAware ADS-B
Sat 04:30:00 PM 37.5455 -122.1510 288° West 180 207 3,700 -1,412 Descending FlightAware ADS-B
Sat 04:30:10 PM 37.5462 -122.1538 288° West 178 205 3,500 -1,600 Descending FlightAware ADS-B (EPLL / LCJ)
Sat 04:30:15 PM 37.5492 -122.1660 287° West 176 203 3,300 -1,765 Descending FlightAware ADS-B
Sat 04:30:27 PM 37.5504 -122.1705 286° West 174 200 3,000 -1,500 Descending FlightAware ADS-B (EPLL / LCJ)
Sat 04:30:31 PM 37.5528 -122.1800 286° West 173 199 2,900 -1,200 Descending FlightAware ADS-B
Sat 04:30:47 PM 37.5567 -122.1970 288° West 174 200 2,600 -1,000 Descending FlightAware ADS-B
Sat 04:30:49 PM 37.5571 -122.1977 287° West 174 200 2,600 -1,200 Level FlightAware ADS-B (EPLL / LCJ)
Sat 04:31:02 PM 37.5607 -122.2110 289° West 172 198 2,300 -1,263 Descending FlightAware ADS-B
Sat 04:31:08 PM 37.5623 -122.2170 289° West 173 199 2,200 -1,000 Descending FlightAware ADS-B
Sat 04:31:26 PM 37.5670 -122.2340 289° West 176 203 1,900 -750 Descending FlightAware ADS-B
Sat 04:31:32 PM 37.5686 -122.2400 288° West 177 204 1,900 -571 Level FlightAware ADS-B
Sat 04:31:47 PM 37.5723 -122.2540 288° West 172 198 1,700 -818 Descending FlightAware ADS-B
Sat 04:31:54 PM 37.5739 -122.2600 290° West 172 198 1,600 -1,091 Descending FlightAware ADS-B
Sat 04:31:58 PM 37.5752 -122.2650 293° West 171 197 1,500 -1,000 Descending FlightAware ADS-B
Sat 04:32:06 PM 37.5778 -122.2720 295° West 161 185 1,400 -857 Descending FlightAware ADS-B
Sat 04:32:19 PM 37.5820 -122.2830 296° West 158 182 1,200 -900 Descending FlightAware ADS-B
Sat 04:32:26 PM 37.5845 -122.2880 297° West 158 182 1,100 -857 Descending FlightAware ADS-B
Sat 04:32:33 PM 37.5865 -122.2930 299° West 155 178 1,000 -1,000 Descending FlightAware ADS-B
Sat 04:32:50 PM 37.5924 -122.3070 299° West 154 177 700 -750 Descending FlightAware ADS-B
Sat 04:33:05 PM 37.5976 -122.3190 298° West 149 171 600 -774 Descending FlightAware ADS-B
Sat 04:33:21 PM 37.6026 -122.3300 298° West 146 168 300 -774 Descending FlightAware ADS-B
Sat 04:33:36 PM 37.6074 -122.3420 298° West 142 163 200 -400 Descending FlightAware ADS-B
Sat 04:33:56 PM 37.6137 -122.3570 298° West 144 166 -600 Descending FlightAware ADS-B

Login

Don't have an account? Register now (free) for customized features, flight alerts, and more!